<?xml version="1.0" encoding="UTF-8" standalone="no" ?>
<gpx xmlns="http://www.topografix.com/GPX/1/1" xmlns:xsi="http://www.w3.org/2001/XMLSchema-instance" xsi:schemaLocation="http://www.topografix.com/GPX/1/1 http://www.topografix.com/GPX/1/1/gpx.xsd" version="1.1" creator="VisuGPX - https://www.visugpx.com">
  <metadata>
    <name>Conques-la chapelle Sainte Foy</name>
    <desc><![CDATA[Circuit au départ du parking de la D 550, en passant sur le pont romain et dans le sens anti-horaire ensuite. Retour par la chapelle sainte Foy. De beaux points de vue sur la cité jalonnent ce parcours. ]]></desc>
  </metadata>
  <trk>
    <name><![CDATA[JUIL-09-19 13:15:58]]></name>
    <trkseg>
      <trkpt lat="44.59878" lon="2.39268">
        <ele>242.39</ele>
        <time>2019-07-09T07:34:11Z</time>
      </trkpt>
      <trkpt lat="44.59878" lon="2.39268">
        <ele>242.39</ele>
        <time>2019-07-09T07:34:24Z</time>
      </trkpt>
      <trkpt lat="44.5988" lon="2.39274">
        <ele>242.87</ele>
        <time>2019-07-09T07:35:38Z</time>
      </trkpt>
      <trkpt lat="44.59879" lon="2.39276">
        <ele>242.87</ele>
        <time>2019-07-09T07:36:26Z</time>
      </trkpt>
      <trkpt lat="44.59876" lon="2.39278">
        <ele>243.35</ele>
        <time>2019-07-09T07:37:03Z</time>
      </trkpt>
      <trkpt lat="44.59869" lon="2.39284">
        <ele>243.35</ele>
        <time>2019-07-09T07:37:19Z</time>
      </trkpt>
      <trkpt lat="44.59856" lon="2.39287">
        <ele>244.31</ele>
        <time>2019-07-09T07:37:33Z</time>
      </trkpt>
      <trkpt lat="44.59855" lon="2.39288">
        <ele>243.83</ele>
        <time>2019-07-09T07:37:41Z</time>
      </trkpt>
      <trkpt lat="44.59841" lon="2.39292">
        <ele>243.83</ele>
        <time>2019-07-09T07:37:53Z</time>
      </trkpt>
      <trkpt lat="44.59839" lon="2.39296">
        <ele>243.83</ele>
        <time>2019-07-09T07:37:55Z</time>
      </trkpt>
      <trkpt lat="44.59834" lon="2.39302">
        <ele>243.35</ele>
        <time>2019-07-09T07:37:59Z</time>
      </trkpt>
      <trkpt lat="44.5982" lon="2.39303">
        <ele>244.31</ele>
        <time>2019-07-09T07:38:13Z</time>
      </trkpt>
      <trkpt lat="44.59814" lon="2.39293">
        <ele>244.31</ele>
        <time>2019-07-09T07:38:22Z</time>
      </trkpt>
      <trkpt lat="44.59817" lon="2.3927">
        <ele>243.35</ele>
        <time>2019-07-09T07:38:36Z</time>
      </trkpt>
      <trkpt lat="44.59817" lon="2.39268">
        <ele>243.35</ele>
        <time>2019-07-09T07:38:37Z</time>
      </trkpt>
      <trkpt lat="44.59818" lon="2.39247">
        <ele>242.87</ele>
        <time>2019-07-09T07:38:50Z</time>
      </trkpt>
      <trkpt lat="44.59821" lon="2.39235">
        <ele>241.91</ele>
        <time>2019-07-09T07:39:01Z</time>
      </trkpt>
      <trkpt lat="44.59821" lon="2.3923">
        <ele>240.95</ele>
        <time>2019-07-09T07:39:07Z</time>
      </trkpt>
      <trkpt lat="44.59814" lon="2.39231">
        <ele>239.51</ele>
        <time>2019-07-09T07:39:19Z</time>
      </trkpt>
      <trkpt lat="44.59812" lon="2.39232">
        <ele>237.58</ele>
        <time>2019-07-09T07:39:32Z</time>
      </trkpt>
      <trkpt lat="44.59808" lon="2.39235">
        <ele>236.14</ele>
        <time>2019-07-09T07:39:45Z</time>
      </trkpt>
      <trkpt lat="44.59808" lon="2.39236">
        <ele>235.66</ele>
        <time>2019-07-09T07:40:05Z</time>
      </trkpt>
      <trkpt lat="44.59808" lon="2.39236">
        <ele>235.66</ele>
        <time>2019-07-09T07:40:20Z</time>
      </trkpt>
      <trkpt lat="44.59808" lon="2.39236">
        <ele>234.7</ele>
        <time>2019-07-09T07:41:23Z</time>
      </trkpt>
      <trkpt lat="44.59812" lon="2.39233">
        <ele>234.7</ele>
        <time>2019-07-09T07:42:35Z</time>
      </trkpt>
      <trkpt lat="44.59817" lon="2.3924">
        <ele>233.74</ele>
        <time>2019-07-09T07:42:48Z</time>
      </trkpt>
      <trkpt lat="44.59822" lon="2.39243">
        <ele>233.26</ele>
        <time>2019-07-09T07:43:02Z</time>
      </trkpt>
      <trkpt lat="44.59823" lon="2.39244">
        <ele>233.26</ele>
        <time>2019-07-09T07:43:25Z</time>
      </trkpt>
      <trkpt lat="44.59822" lon="2.39242">
        <ele>233.26</ele>
        <time>2019-07-09T07:43:42Z</time>
      </trkpt>
      <trkpt lat="44.59818" lon="2.3924">
        <ele>233.26</ele>
        <time>2019-07-09T07:44:10Z</time>
      </trkpt>
      <trkpt lat="44.59815" lon="2.39236">
        <ele>233.74</ele>
        <time>2019-07-09T07:44:14Z</time>
      </trkpt>
      <trkpt lat="44.59817" lon="2.39228">
        <ele>235.18</ele>
        <time>2019-07-09T07:44:24Z</time>
      </trkpt>
      <trkpt lat="44.59822" lon="2.39228">
        <ele>237.58</ele>
        <time>2019-07-09T07:44:36Z</time>
      </trkpt>
      <trkpt lat="44.59823" lon="2.39224">
        <ele>237.1</ele>
        <time>2019-07-09T07:44:49Z</time>
      </trkpt>
      <trkpt lat="44.59823" lon="2.39224">
        <ele>237.1</ele>
        <time>2019-07-09T07:45:10Z</time>
      </trkpt>
      <trkpt lat="44.59822" lon="2.39226">
        <ele>237.1</ele>
        <time>2019-07-09T07:45:54Z</time>
      </trkpt>
      <trkpt lat="44.59821" lon="2.39219">
        <ele>237.1</ele>
        <time>2019-07-09T07:46:02Z</time>
      </trkpt>
      <trkpt lat="44.5982" lon="2.39205">
        <ele>238.06</ele>
        <time>2019-07-09T07:46:14Z</time>
      </trkpt>
      <trkpt lat="44.59814" lon="2.39185">
        <ele>239.02</ele>
        <time>2019-07-09T07:46:29Z</time>
      </trkpt>
      <trkpt lat="44.59808" lon="2.39168">
        <ele>239.51</ele>
        <time>2019-07-09T07:46:42Z</time>
      </trkpt>
      <trkpt lat="44.59805" lon="2.39156">
        <ele>240.95</ele>
        <time>2019-07-09T07:46:51Z</time>
      </trkpt>
      <trkpt lat="44.598" lon="2.39153">
        <ele>240.95</ele>
        <time>2019-07-09T07:46:56Z</time>
      </trkpt>
      <trkpt lat="44.59793" lon="2.39138">
        <ele>242.39</ele>
        <time>2019-07-09T07:47:07Z</time>
      </trkpt>
      <trkpt lat="44.59784" lon="2.39129">
        <ele>243.35</ele>
        <time>2019-07-09T07:47:19Z</time>
      </trkpt>
      <trkpt lat="44.59776" lon="2.39125">
        <ele>243.35</ele>
        <time>2019-07-09T07:47:27Z</time>
      </trkpt>
      <trkpt lat="44.59772" lon="2.39121">
        <ele>244.31</ele>
        <time>2019-07-09T07:47:35Z</time>
      </trkpt>
      <trkpt lat="44.59772" lon="2.39114">
        <ele>245.27</ele>
        <time>2019-07-09T07:47:45Z</time>
      </trkpt>
      <trkpt lat="44.59774" lon="2.39112">
        <ele>245.27</ele>
        <time>2019-07-09T07:47:50Z</time>
      </trkpt>
      <trkpt lat="44.59785" lon="2.39107">
        <ele>246.72</ele>
        <time>2019-07-09T07:48:04Z</time>
      </trkpt>
      <trkpt lat="44.59792" lon="2.3911">
        <ele>247.2</ele>
        <time>2019-07-09T07:48:13Z</time>
      </trkpt>
      <trkpt lat="44.59796" lon="2.39115">
        <ele>248.16</ele>
        <time>2019-07-09T07:48:21Z</time>
      </trkpt>
      <trkpt lat="44.59807" lon="2.39119">
        <ele>249.12</ele>
        <time>2019-07-09T07:48:33Z</time>
      </trkpt>
      <trkpt lat="44.59813" lon="2.39128">
        <ele>249.12</ele>
        <time>2019-07-09T07:48:43Z</time>
      </trkpt>
      <trkpt lat="44.59818" lon="2.39136">
        <ele>249.6</ele>
        <time>2019-07-09T07:48:51Z</time>
      </trkpt>
      <trkpt lat="44.59821" lon="2.39145">
        <ele>250.56</ele>
        <time>2019-07-09T07:49:02Z</time>
      </trkpt>
      <trkpt lat="44.59827" lon="2.39153">
        <ele>251.52</ele>
        <time>2019-07-09T07:49:11Z</time>
      </trkpt>
      <trkpt lat="44.59829" lon="2.39157">
        <ele>251.52</ele>
        <time>2019-07-09T07:49:29Z</time>
      </trkpt>
      <trkpt lat="44.59831" lon="2.39156">
        <ele>251.52</ele>
        <time>2019-07-09T07:49:51Z</time>
      </trkpt>
      <trkpt lat="44.59833" lon="2.39157">
        <ele>251.04</ele>
        <time>2019-07-09T07:49:53Z</time>
      </trkpt>
      <trkpt lat="44.59843" lon="2.39157">
        <ele>252.48</ele>
        <time>2019-07-09T07:50:06Z</time>
      </trkpt>
      <trkpt lat="44.59853" lon="2.39147">
        <ele>252.96</ele>
        <time>2019-07-09T07:50:20Z</time>
      </trkpt>
      <trkpt lat="44.5986" lon="2.3914">
        <ele>253.44</ele>
        <time>2019-07-09T07:50:28Z</time>
      </trkpt>
      <trkpt lat="44.59868" lon="2.39127">
        <ele>254.41</ele>
        <time>2019-07-09T07:50:42Z</time>
      </trkpt>
      <trkpt lat="44.59874" lon="2.39117">
        <ele>254.89</ele>
        <time>2019-07-09T07:50:55Z</time>
      </trkpt>
      <trkpt lat="44.59877" lon="2.39113">
        <ele>255.85</ele>
        <time>2019-07-09T07:51:08Z</time>
      </trkpt>
      <trkpt lat="44.59879" lon="2.39109">
        <ele>256.81</ele>
        <time>2019-07-09T07:51:19Z</time>
      </trkpt>
      <trkpt lat="44.59887" lon="2.39097">
        <ele>256.81</ele>
        <time>2019-07-09T07:51:30Z</time>
      </trkpt>
      <trkpt lat="44.59891" lon="2.3909">
        <ele>257.29</ele>
        <time>2019-07-09T07:51:37Z</time>
      </trkpt>
      <trkpt lat="44.59894" lon="2.39085">
        <ele>257.77</ele>
        <time>2019-07-09T07:51:41Z</time>
      </trkpt>
      <trkpt lat="44.59895" lon="2.39072">
        <ele>258.25</ele>
        <time>2019-07-09T07:51:51Z</time>
      </trkpt>
      <trkpt lat="44.599" lon="2.39047">
        <ele>258.73</ele>
        <time>2019-07-09T07:52:02Z</time>
      </trkpt>
      <trkpt lat="44.59908" lon="2.39035">
        <ele>260.17</ele>
        <time>2019-07-09T07:52:16Z</time>
      </trkpt>
      <trkpt lat="44.59912" lon="2.39024">
        <ele>261.14</ele>
        <time>2019-07-09T07:52:28Z</time>
      </trkpt>
      <trkpt lat="44.59915" lon="2.39013">
        <ele>262.1</ele>
        <time>2019-07-09T07:52:39Z</time>
      </trkpt>
      <trkpt lat="44.59922" lon="2.39001">
        <ele>262.58</ele>
        <time>2019-07-09T07:52:51Z</time>
      </trkpt>
      <trkpt lat="44.5993" lon="2.38994">
        <ele>263.54</ele>
        <time>2019-07-09T07:53:02Z</time>
      </trkpt>
      <trkpt lat="44.59931" lon="2.38992">
        <ele>264.02</ele>
        <time>2019-07-09T07:53:04Z</time>
      </trkpt>
      <trkpt lat="44.59934" lon="2.38981">
        <ele>264.5</ele>
        <time>2019-07-09T07:53:15Z</time>
      </trkpt>
      <trkpt lat="44.5993" lon="2.3898">
        <ele>264.98</ele>
        <time>2019-07-09T07:53:23Z</time>
      </trkpt>
      <trkpt lat="44.59924" lon="2.38988">
        <ele>265.94</ele>
        <time>2019-07-09T07:53:35Z</time>
      </trkpt>
      <trkpt lat="44.59918" lon="2.38998">
        <ele>266.42</ele>
        <time>2019-07-09T07:53:48Z</time>
      </trkpt>
      <trkpt lat="44.59912" lon="2.39004">
        <ele>266.9</ele>
        <time>2019-07-09T07:53:59Z</time>
      </trkpt>
      <trkpt lat="44.59907" lon="2.39012">
        <ele>267.38</ele>
        <time>2019-07-09T07:54:10Z</time>
      </trkpt>
      <trkpt lat="44.59903" lon="2.39018">
        <ele>268.35</ele>
        <time>2019-07-09T07:54:18Z</time>
      </trkpt>
      <trkpt lat="44.59902" lon="2.3902">
        <ele>268.35</ele>
        <time>2019-07-09T07:54:22Z</time>
      </trkpt>
      <trkpt lat="44.59895" lon="2.39025">
        <ele>269.31</ele>
        <time>2019-07-09T07:54:33Z</time>
      </trkpt>
      <trkpt lat="44.59893" lon="2.39027">
        <ele>269.79</ele>
        <time>2019-07-09T07:54:38Z</time>
      </trkpt>
      <trkpt lat="44.59882" lon="2.39035">
        <ele>270.27</ele>
        <time>2019-07-09T07:54:48Z</time>
      </trkpt>
      <trkpt lat="44.59873" lon="2.39044">
        <ele>271.23</ele>
        <time>2019-07-09T07:55:03Z</time>
      </trkpt>
      <trkpt lat="44.59871" lon="2.39043">
        <ele>271.71</ele>
        <time>2019-07-09T07:55:16Z</time>
      </trkpt>
      <trkpt lat="44.59872" lon="2.39037">
        <ele>272.67</ele>
        <time>2019-07-09T07:55:26Z</time>
      </trkpt>
      <trkpt lat="44.59872" lon="2.39037">
        <ele>272.67</ele>
        <time>2019-07-09T07:55:27Z</time>
      </trkpt>
      <trkpt lat="44.59869" lon="2.39027">
        <ele>274.11</ele>
        <time>2019-07-09T07:55:38Z</time>
      </trkpt>
      <trkpt lat="44.59866" lon="2.3903">
        <ele>275.56</ele>
        <time>2019-07-09T07:55:48Z</time>
      </trkpt>
      <trkpt lat="44.59861" lon="2.39034">
        <ele>277</ele>
        <time>2019-07-09T07:56:02Z</time>
      </trkpt>
      <trkpt lat="44.59856" lon="2.39035">
        <ele>277</ele>
        <time>2019-07-09T07:56:14Z</time>
      </trkpt>
      <trkpt lat="44.59849" lon="2.3904">
        <ele>278.44</ele>
        <time>2019-07-09T07:56:25Z</time>
      </trkpt>
      <trkpt lat="44.59843" lon="2.39042">
        <ele>278.92</ele>
        <time>2019-07-09T07:56:35Z</time>
      </trkpt>
      <trkpt lat="44.5984" lon="2.39044">
        <ele>278.92</ele>
        <time>2019-07-09T07:56:41Z</time>
      </trkpt>
      <trkpt lat="44.59833" lon="2.39051">
        <ele>280.36</ele>
        <time>2019-07-09T07:56:54Z</time>
      </trkpt>
      <trkpt lat="44.59827" lon="2.39052">
        <ele>281.32</ele>
        <time>2019-07-09T07:57:05Z</time>
      </trkpt>
      <trkpt lat="44.59829" lon="2.39046">
        <ele>283.25</ele>
        <time>2019-07-09T07:57:18Z</time>
      </trkpt>
      <trkpt lat="44.59834" lon="2.39041">
        <ele>285.17</ele>
        <time>2019-07-09T07:57:31Z</time>
      </trkpt>
      <trkpt lat="44.59838" lon="2.39036">
        <ele>286.13</ele>
        <time>2019-07-09T07:57:43Z</time>
      </trkpt>
      <trkpt lat="44.5984" lon="2.39028">
        <ele>287.09</ele>
        <time>2019-07-09T07:57:55Z</time>
      </trkpt>
      <trkpt lat="44.59845" lon="2.39016">
        <ele>288.05</ele>
        <time>2019-07-09T07:58:09Z</time>
      </trkpt>
      <trkpt lat="44.59846" lon="2.39009">
        <ele>289.49</ele>
        <time>2019-07-09T07:58:23Z</time>
      </trkpt>
      <trkpt lat="44.59848" lon="2.38998">
        <ele>290.94</ele>
        <time>2019-07-09T07:58:36Z</time>
      </trkpt>
      <trkpt lat="44.59855" lon="2.38989">
        <ele>291.9</ele>
        <time>2019-07-09T07:58:50Z</time>
      </trkpt>
      <trkpt lat="44.59855" lon="2.38984">
        <ele>293.82</ele>
        <time>2019-07-09T07:59:06Z</time>
      </trkpt>
      <trkpt lat="44.59855" lon="2.3898">
        <ele>295.74</ele>
        <time>2019-07-09T07:59:20Z</time>
      </trkpt>
      <trkpt lat="44.59853" lon="2.38983">
        <ele>297.18</ele>
        <time>2019-07-09T07:59:33Z</time>
      </trkpt>
      <trkpt lat="44.59848" lon="2.38986">
        <ele>297.67</ele>
        <time>2019-07-09T07:59:45Z</time>
      </trkpt>
      <trkpt lat="44.59843" lon="2.38989">
        <ele>298.63</ele>
        <time>2019-07-09T07:59:57Z</time>
      </trkpt>
      <trkpt lat="44.59838" lon="2.3899">
        <ele>299.11</ele>
        <time>2019-07-09T08:00:09Z</time>
      </trkpt>
      <trkpt lat="44.59834" lon="2.38992">
        <ele>301.03</ele>
        <time>2019-07-09T08:00:22Z</time>
      </trkpt>
      <trkpt lat="44.59838" lon="2.38985">
        <ele>302.47</ele>
        <time>2019-07-09T08:00:37Z</time>
      </trkpt>
      <trkpt lat="44.59843" lon="2.38978">
        <ele>303.43</ele>
        <time>2019-07-09T08:00:50Z</time>
      </trkpt>
      <trkpt lat="44.59842" lon="2.38968">
        <ele>304.88</ele>
        <time>2019-07-09T08:01:05Z</time>
      </trkpt>
      <trkpt lat="44.59846" lon="2.38955">
        <ele>306.32</ele>
        <time>2019-07-09T08:01:19Z</time>
      </trkpt>
      <trkpt lat="44.5985" lon="2.38943">
        <ele>308.24</ele>
        <time>2019-07-09T08:01:36Z</time>
      </trkpt>
      <trkpt lat="44.59855" lon="2.38935">
        <ele>310.16</ele>
        <time>2019-07-09T08:01:51Z</time>
      </trkpt>
      <trkpt lat="44.59863" lon="2.38925">
        <ele>311.12</ele>
        <time>2019-07-09T08:02:05Z</time>
      </trkpt>
      <trkpt lat="44.59866" lon="2.38919">
        <ele>313.05</ele>
        <time>2019-07-09T08:02:19Z</time>
      </trkpt>
      <trkpt lat="44.59873" lon="2.38908">
        <ele>314.01</ele>
        <time>2019-07-09T08:02:31Z</time>
      </trkpt>
      <trkpt lat="44.59873" lon="2.38905">
        <ele>314.97</ele>
        <time>2019-07-09T08:02:43Z</time>
      </trkpt>
      <trkpt lat="44.59874" lon="2.38901">
        <ele>316.41</ele>
        <time>2019-07-09T08:02:56Z</time>
      </trkpt>
      <trkpt lat="44.59877" lon="2.38896">
        <ele>317.85</ele>
        <time>2019-07-09T08:03:12Z</time>
      </trkpt>
      <trkpt lat="44.59879" lon="2.38891">
        <ele>320.26</ele>
        <time>2019-07-09T08:03:28Z</time>
      </trkpt>
      <trkpt lat="44.59886" lon="2.38879">
        <ele>321.7</ele>
        <time>2019-07-09T08:03:41Z</time>
      </trkpt>
      <trkpt lat="44.59891" lon="2.38868">
        <ele>323.62</ele>
        <time>2019-07-09T08:03:58Z</time>
      </trkpt>
      <trkpt lat="44.59892" lon="2.38867">
        <ele>323.62</ele>
        <time>2019-07-09T08:03:59Z</time>
      </trkpt>
      <trkpt lat="44.599" lon="2.38856">
        <ele>325.06</ele>
        <time>2019-07-09T08:04:12Z</time>
      </trkpt>
      <trkpt lat="44.59903" lon="2.38845">
        <ele>326.02</ele>
        <time>2019-07-09T08:04:25Z</time>
      </trkpt>
      <trkpt lat="44.59904" lon="2.3884">
        <ele>327.47</ele>
        <time>2019-07-09T08:04:38Z</time>
      </trkpt>
      <trkpt lat="44.59907" lon="2.38834">
        <ele>328.91</ele>
        <time>2019-07-09T08:04:50Z</time>
      </trkpt>
      <trkpt lat="44.59908" lon="2.38831">
        <ele>328.43</ele>
        <time>2019-07-09T08:04:55Z</time>
      </trkpt>
      <trkpt lat="44.59914" lon="2.3882">
        <ele>329.87</ele>
        <time>2019-07-09T08:05:08Z</time>
      </trkpt>
      <trkpt lat="44.59916" lon="2.38813">
        <ele>330.35</ele>
        <time>2019-07-09T08:05:23Z</time>
      </trkpt>
      <trkpt lat="44.5992" lon="2.388">
        <ele>329.87</ele>
        <time>2019-07-09T08:05:40Z</time>
      </trkpt>
      <trkpt lat="44.59922" lon="2.38798">
        <ele>329.87</ele>
        <time>2019-07-09T08:05:54Z</time>
      </trkpt>
      <trkpt lat="44.59922" lon="2.38798">
        <ele>328.91</ele>
        <time>2019-07-09T08:06:26Z</time>
      </trkpt>
      <trkpt lat="44.59925" lon="2.38797">
        <ele>328.43</ele>
        <time>2019-07-09T08:06:47Z</time>
      </trkpt>
      <trkpt lat="44.59927" lon="2.38795">
        <ele>328.43</ele>
        <time>2019-07-09T08:07:16Z</time>
      </trkpt>
      <trkpt lat="44.59927" lon="2.38793">
        <ele>327.95</ele>
        <time>2019-07-09T08:07:31Z</time>
      </trkpt>
      <trkpt lat="44.5993" lon="2.38795">
        <ele>327.47</ele>
        <time>2019-07-09T08:08:11Z</time>
      </trkpt>
      <trkpt lat="44.5993" lon="2.38795">
        <ele>326.99</ele>
        <time>2019-07-09T08:08:50Z</time>
      </trkpt>
      <trkpt lat="44.59931" lon="2.38788">
        <ele>327.47</ele>
        <time>2019-07-09T08:09:02Z</time>
      </trkpt>
      <trkpt lat="44.59935" lon="2.38781">
        <ele>328.43</ele>
        <time>2019-07-09T08:09:13Z</time>
      </trkpt>
      <trkpt lat="44.59934" lon="2.38776">
        <ele>329.87</ele>
        <time>2019-07-09T08:09:25Z</time>
      </trkpt>
      <trkpt lat="44.59933" lon="2.3877">
        <ele>331.31</ele>
        <time>2019-07-09T08:09:38Z</time>
      </trkpt>
      <trkpt lat="44.59934" lon="2.38763">
        <ele>332.27</ele>
        <time>2019-07-09T08:09:47Z</time>
      </trkpt>
      <trkpt lat="44.59936" lon="2.3876">
        <ele>333.71</ele>
        <time>2019-07-09T08:09:59Z</time>
      </trkpt>
      <trkpt lat="44.59934" lon="2.38752">
        <ele>335.16</ele>
        <time>2019-07-09T08:10:13Z</time>
      </trkpt>
      <trkpt lat="44.59941" lon="2.38746">
        <ele>335.64</ele>
        <time>2019-07-09T08:10:25Z</time>
      </trkpt>
      <trkpt lat="44.59953" lon="2.38743">
        <ele>336.12</ele>
        <time>2019-07-09T08:10:37Z</time>
      </trkpt>
      <trkpt lat="44.59959" lon="2.3874">
        <ele>337.08</ele>
        <time>2019-07-09T08:10:49Z</time>
      </trkpt>
      <trkpt lat="44.59973" lon="2.38736">
        <ele>338.04</ele>
        <time>2019-07-09T08:11:02Z</time>
      </trkpt>
      <trkpt lat="44.59977" lon="2.3873">
        <ele>339.48</ele>
        <time>2019-07-09T08:11:15Z</time>
      </trkpt>
      <trkpt lat="44.59977" lon="2.38725">
        <ele>341.41</ele>
        <time>2019-07-09T08:11:31Z</time>
      </trkpt>
      <trkpt lat="44.59984" lon="2.38719">
        <ele>342.37</ele>
        <time>2019-07-09T08:11:43Z</time>
      </trkpt>
      <trkpt lat="44.59988" lon="2.38716">
        <ele>343.81</ele>
        <time>2019-07-09T08:11:58Z</time>
      </trkpt>
      <trkpt lat="44.59988" lon="2.38716">
        <ele>343.81</ele>
        <time>2019-07-09T08:11:59Z</time>
      </trkpt>
      <trkpt lat="44.59997" lon="2.38709">
        <ele>345.73</ele>
        <time>2019-07-09T08:12:13Z</time>
      </trkpt>
      <trkpt lat="44.60011" lon="2.38702">
        <ele>347.17</ele>
        <time>2019-07-09T08:12:28Z</time>
      </trkpt>
      <trkpt lat="44.60016" lon="2.38698">
        <ele>349.1</ele>
        <time>2019-07-09T08:12:43Z</time>
      </trkpt>
      <trkpt lat="44.60021" lon="2.38691">
        <ele>350.06</ele>
        <time>2019-07-09T08:12:55Z</time>
      </trkpt>
      <trkpt lat="44.6002" lon="2.38687">
        <ele>351.5</ele>
        <time>2019-07-09T08:13:04Z</time>
      </trkpt>
      <trkpt lat="44.60019" lon="2.38682">
        <ele>352.46</ele>
        <time>2019-07-09T08:13:16Z</time>
      </trkpt>
      <trkpt lat="44.60021" lon="2.38675">
        <ele>354.86</ele>
        <time>2019-07-09T08:13:30Z</time>
      </trkpt>
      <trkpt lat="44.60025" lon="2.38666">
        <ele>355.83</ele>
        <time>2019-07-09T08:13:43Z</time>
      </trkpt>
      <trkpt lat="44.60029" lon="2.3866">
        <ele>357.75</ele>
        <time>2019-07-09T08:13:55Z</time>
      </trkpt>
      <trkpt lat="44.60031" lon="2.38654">
        <ele>360.15</ele>
        <time>2019-07-09T08:14:11Z</time>
      </trkpt>
      <trkpt lat="44.60037" lon="2.38651">
        <ele>362.07</ele>
        <time>2019-07-09T08:14:26Z</time>
      </trkpt>
      <trkpt lat="44.60045" lon="2.38647">
        <ele>363.52</ele>
        <time>2019-07-09T08:14:38Z</time>
      </trkpt>
      <trkpt lat="44.60054" lon="2.38648">
        <ele>364.48</ele>
        <time>2019-07-09T08:14:48Z</time>
      </trkpt>
      <trkpt lat="44.60063" lon="2.38649">
        <ele>365.92</ele>
        <time>2019-07-09T08:15:02Z</time>
      </trkpt>
      <trkpt lat="44.60082" lon="2.38655">
        <ele>367.84</ele>
        <time>2019-07-09T08:15:18Z</time>
      </trkpt>
      <trkpt lat="44.60087" lon="2.38657">
        <ele>369.76</ele>
        <time>2019-07-09T08:15:32Z</time>
      </trkpt>
      <trkpt lat="44.60097" lon="2.38651">
        <ele>370.73</ele>
        <time>2019-07-09T08:15:46Z</time>
      </trkpt>
      <trkpt lat="44.60104" lon="2.38644">
        <ele>372.65</ele>
        <time>2019-07-09T08:15:59Z</time>
      </trkpt>
      <trkpt lat="44.60114" lon="2.38641">
        <ele>374.09</ele>
        <time>2019-07-09T08:16:13Z</time>
      </trkpt>
      <trkpt lat="44.6012" lon="2.38637">
        <ele>375.05</ele>
        <time>2019-07-09T08:16:29Z</time>
      </trkpt>
      <trkpt lat="44.60127" lon="2.38633">
        <ele>377.94</ele>
        <time>2019-07-09T08:16:44Z</time>
      </trkpt>
      <trkpt lat="44.6014" lon="2.38627">
        <ele>379.38</ele>
        <time>2019-07-09T08:16:59Z</time>
      </trkpt>
      <trkpt lat="44.60144" lon="2.38624">
        <ele>381.3</ele>
        <time>2019-07-09T08:17:13Z</time>
      </trkpt>
      <trkpt lat="44.60153" lon="2.38623">
        <ele>383.22</ele>
        <time>2019-07-09T08:17:27Z</time>
      </trkpt>
      <trkpt lat="44.6016" lon="2.38619">
        <ele>384.18</ele>
        <time>2019-07-09T08:17:42Z</time>
      </trkpt>
      <trkpt lat="44.60167" lon="2.38607">
        <ele>385.63</ele>
        <time>2019-07-09T08:17:55Z</time>
      </trkpt>
      <trkpt lat="44.60167" lon="2.38598">
        <ele>387.55</ele>
        <time>2019-07-09T08:18:07Z</time>
      </trkpt>
      <trkpt lat="44.60171" lon="2.38586">
        <ele>389.47</ele>
        <time>2019-07-09T08:18:24Z</time>
      </trkpt>
      <trkpt lat="44.6017" lon="2.38574">
        <ele>391.39</ele>
        <time>2019-07-09T08:18:36Z</time>
      </trkpt>
      <trkpt lat="44.60172" lon="2.38567">
        <ele>392.36</ele>
        <time>2019-07-09T08:18:48Z</time>
      </trkpt>
      <trkpt lat="44.60174" lon="2.38557">
        <ele>394.28</ele>
        <time>2019-07-09T08:18:59Z</time>
      </trkpt>
      <trkpt lat="44.60179" lon="2.38549">
        <ele>394.76</ele>
        <time>2019-07-09T08:19:10Z</time>
      </trkpt>
      <trkpt lat="44.60181" lon="2.38541">
        <ele>396.2</ele>
        <time>2019-07-09T08:19:22Z</time>
      </trkpt>
      <trkpt lat="44.6018" lon="2.38536">
        <ele>397.16</ele>
        <time>2019-07-09T08:19:35Z</time>
      </trkpt>
      <trkpt lat="44.60178" lon="2.38533">
        <ele>399.08</ele>
        <time>2019-07-09T08:19:49Z</time>
      </trkpt>
      <trkpt lat="44.60173" lon="2.38527">
        <ele>400.53</ele>
        <time>2019-07-09T08:20:00Z</time>
      </trkpt>
      <trkpt lat="44.60172" lon="2.38531">
        <ele>401.49</ele>
        <time>2019-07-09T08:20:13Z</time>
      </trkpt>
      <trkpt lat="44.60168" lon="2.38539">
        <ele>402.93</ele>
        <time>2019-07-09T08:20:24Z</time>
      </trkpt>
      <trkpt lat="44.60164" lon="2.38545">
        <ele>403.89</ele>
        <time>2019-07-09T08:20:37Z</time>
      </trkpt>
      <trkpt lat="44.60161" lon="2.38554">
        <ele>404.85</ele>
        <time>2019-07-09T08:20:47Z</time>
      </trkpt>
      <trkpt lat="44.60161" lon="2.38553">
        <ele>404.85</ele>
        <time>2019-07-09T08:21:41Z</time>
      </trkpt>
      <trkpt lat="44.60161" lon="2.38553">
        <ele>405.33</ele>
        <time>2019-07-09T08:22:53Z</time>
      </trkpt>
      <trkpt lat="44.60156" lon="2.38558">
        <ele>405.81</ele>
        <time>2019-07-09T08:23:10Z</time>
      </trkpt>
      <trkpt lat="44.60157" lon="2.38553">
        <ele>406.29</ele>
        <time>2019-07-09T08:23:15Z</time>
      </trkpt>
      <trkpt lat="44.60166" lon="2.38548">
        <ele>407.26</ele>
        <time>2019-07-09T08:23:24Z</time>
      </trkpt>
      <trkpt lat="44.6017" lon="2.38542">
        <ele>407.74</ele>
        <time>2019-07-09T08:23:30Z</time>
      </trkpt>
      <trkpt lat="44.60173" lon="2.3853">
        <ele>409.66</ele>
        <time>2019-07-09T08:23:43Z</time>
      </trkpt>
      <trkpt lat="44.60165" lon="2.38523">
        <ele>409.66</ele>
        <time>2019-07-09T08:23:50Z</time>
      </trkpt>
      <trkpt lat="44.60162" lon="2.38518">
        <ele>410.62</ele>
        <time>2019-07-09T08:23:57Z</time>
      </trkpt>
      <trkpt lat="44.60162" lon="2.3851">
        <ele>411.58</ele>
        <time>2019-07-09T08:24:09Z</time>
      </trkpt>
      <trkpt lat="44.60159" lon="2.38504">
        <ele>412.06</ele>
        <time>2019-07-09T08:24:18Z</time>
      </trkpt>
      <trkpt lat="44.60147" lon="2.38493">
        <ele>413.98</ele>
        <time>2019-07-09T08:24:30Z</time>
      </trkpt>
      <trkpt lat="44.60142" lon="2.38479">
        <ele>415.43</ele>
        <time>2019-07-09T08:24:44Z</time>
      </trkpt>
      <trkpt lat="44.60129" lon="2.38473">
        <ele>416.87</ele>
        <time>2019-07-09T08:24:58Z</time>
      </trkpt>
      <trkpt lat="44.60131" lon="2.38475">
        <ele>418.31</ele>
        <time>2019-07-09T08:25:11Z</time>
      </trkpt>
      <trkpt lat="44.60132" lon="2.38481">
        <ele>420.23</ele>
        <time>2019-07-09T08:25:22Z</time>
      </trkpt>
      <trkpt lat="44.60134" lon="2.38488">
        <ele>421.19</ele>
        <time>2019-07-09T08:25:35Z</time>
      </trkpt>
      <trkpt lat="44.6013" lon="2.38497">
        <ele>423.12</ele>
        <time>2019-07-09T08:25:47Z</time>
      </trkpt>
      <trkpt lat="44.60129" lon="2.38509">
        <ele>425.04</ele>
        <time>2019-07-09T08:26:01Z</time>
      </trkpt>
      <trkpt lat="44.60127" lon="2.38513">
        <ele>426.48</ele>
        <time>2019-07-09T08:26:14Z</time>
      </trkpt>
      <trkpt lat="44.60123" lon="2.38513">
        <ele>428.89</ele>
        <time>2019-07-09T08:26:28Z</time>
      </trkpt>
      <trkpt lat="44.60113" lon="2.38516">
        <ele>430.81</ele>
        <time>2019-07-09T08:26:44Z</time>
      </trkpt>
      <trkpt lat="44.60106" lon="2.38514">
        <ele>432.25</ele>
        <time>2019-07-09T08:26:58Z</time>
      </trkpt>
      <trkpt lat="44.60107" lon="2.38515">
        <ele>432.25</ele>
        <time>2019-07-09T08:27:02Z</time>
      </trkpt>
      <trkpt lat="44.60115" lon="2.38518">
        <ele>434.17</ele>
        <time>2019-07-09T08:27:13Z</time>
      </trkpt>
      <trkpt lat="44.60116" lon="2.38513">
        <ele>435.13</ele>
        <time>2019-07-09T08:27:27Z</time>
      </trkpt>
      <trkpt lat="44.60108" lon="2.38501">
        <ele>437.54</ele>
        <time>2019-07-09T08:27:43Z</time>
      </trkpt>
      <trkpt lat="44.60099" lon="2.3849">
        <ele>438.5</ele>
        <time>2019-07-09T08:27:58Z</time>
      </trkpt>
      <trkpt lat="44.60096" lon="2.38488">
        <ele>440.42</ele>
        <time>2019-07-09T08:28:14Z</time>
      </trkpt>
      <trkpt lat="44.60097" lon="2.38485">
        <ele>442.34</ele>
        <time>2019-07-09T08:28:26Z</time>
      </trkpt>
      <trkpt lat="44.6009" lon="2.38484">
        <ele>443.31</ele>
        <time>2019-07-09T08:28:40Z</time>
      </trkpt>
      <trkpt lat="44.60082" lon="2.38486">
        <ele>444.27</ele>
        <time>2019-07-09T08:28:54Z</time>
      </trkpt>
      <trkpt lat="44.60076" lon="2.38486">
        <ele>445.23</ele>
        <time>2019-07-09T08:29:05Z</time>
      </trkpt>
      <trkpt lat="44.60066" lon="2.38492">
        <ele>446.67</ele>
        <time>2019-07-09T08:29:19Z</time>
      </trkpt>
      <trkpt lat="44.60059" lon="2.38495">
        <ele>447.15</ele>
        <time>2019-07-09T08:29:31Z</time>
      </trkpt>
      <trkpt lat="44.60047" lon="2.38499">
        <ele>449.07</ele>
        <time>2019-07-09T08:29:46Z</time>
      </trkpt>
      <trkpt lat="44.6004" lon="2.38506">
        <ele>450.03</ele>
        <time>2019-07-09T08:29:59Z</time>
      </trkpt>
      <trkpt lat="44.60034" lon="2.38512">
        <ele>451.48</ele>
        <time>2019-07-09T08:30:10Z</time>
      </trkpt>
      <trkpt lat="44.60028" lon="2.38516">
        <ele>452.44</ele>
        <time>2019-07-09T08:30:22Z</time>
      </trkpt>
      <trkpt lat="44.60024" lon="2.38521">
        <ele>454.36</ele>
        <time>2019-07-09T08:30:35Z</time>
      </trkpt>
      <trkpt lat="44.6002" lon="2.38523">
        <ele>455.32</ele>
        <time>2019-07-09T08:30:47Z</time>
      </trkpt>
      <trkpt lat="44.6002" lon="2.38523">
        <ele>455.32</ele>
        <time>2019-07-09T08:31:16Z</time>
      </trkpt>
      <trkpt lat="44.60021" lon="2.38522">
        <ele>455.8</ele>
        <time>2019-07-09T08:31:29Z</time>
      </trkpt>
      <trkpt lat="44.60019" lon="2.38522">
        <ele>455.8</ele>
        <time>2019-07-09T08:31:54Z</time>
      </trkpt>
      <trkpt lat="44.60019" lon="2.38523">
        <ele>455.32</ele>
        <time>2019-07-09T08:32:54Z</time>
      </trkpt>
      <trkpt lat="44.60017" lon="2.38523">
        <ele>455.8</ele>
        <time>2019-07-09T08:33:28Z</time>
      </trkpt>
      <trkpt lat="44.60014" lon="2.38521">
        <ele>456.76</ele>
        <time>2019-07-09T08:33:48Z</time>
      </trkpt>
      <trkpt lat="44.60014" lon="2.38518">
        <ele>457.24</ele>
        <time>2019-07-09T08:34:01Z</time>
      </trkpt>
      <trkpt lat="44.60013" lon="2.38517">
        <ele>456.28</ele>
        <time>2019-07-09T08:34:13Z</time>
      </trkpt>
      <trkpt lat="44.60013" lon="2.38517">
        <ele>457.24</ele>
        <time>2019-07-09T08:35:00Z</time>
      </trkpt>
      <trkpt lat="44.60012" lon="2.38519">
        <ele>457.72</ele>
        <time>2019-07-09T08:35:49Z</time>
      </trkpt>
      <trkpt lat="44.60012" lon="2.38524">
        <ele>456.28</ele>
        <time>2019-07-09T08:36:18Z</time>
      </trkpt>
      <trkpt lat="44.60007" lon="2.38523">
        <ele>457.24</ele>
        <time>2019-07-09T08:37:17Z</time>
      </trkpt>
      <trkpt lat="44.60003" lon="2.38519">
        <ele>458.69</ele>
        <time>2019-07-09T08:37:30Z</time>
      </trkpt>
      <trkpt lat="44.59993" lon="2.38517">
        <ele>460.13</ele>
        <time>2019-07-09T08:37:41Z</time>
      </trkpt>
      <trkpt lat="44.59983" lon="2.38516">
        <ele>460.13</ele>
        <time>2019-07-09T08:37:54Z</time>
      </trkpt>
      <trkpt lat="44.59973" lon="2.3851">
        <ele>461.09</ele>
        <time>2019-07-09T08:38:06Z</time>
      </trkpt>
      <trkpt lat="44.59965" lon="2.38506">
        <ele>462.05</ele>
        <time>2019-07-09T08:38:18Z</time>
      </trkpt>
      <trkpt lat="44.5996" lon="2.38501">
        <ele>463.01</ele>
        <time>2019-07-09T08:38:30Z</time>
      </trkpt>
      <trkpt lat="44.59955" lon="2.38495">
        <ele>463.97</ele>
        <time>2019-07-09T08:38:42Z</time>
      </trkpt>
      <trkpt lat="44.59948" lon="2.38488">
        <ele>465.42</ele>
        <time>2019-07-09T08:38:55Z</time>
      </trkpt>
      <trkpt lat="44.59936" lon="2.38481">
        <ele>466.86</ele>
        <time>2019-07-09T08:39:08Z</time>
      </trkpt>
      <trkpt lat="44.59924" lon="2.38483">
        <ele>467.82</ele>
        <time>2019-07-09T08:39:21Z</time>
      </trkpt>
      <trkpt lat="44.5992" lon="2.38481">
        <ele>469.26</ele>
        <time>2019-07-09T08:39:31Z</time>
      </trkpt>
      <trkpt lat="44.59916" lon="2.38481">
        <ele>471.66</ele>
        <time>2019-07-09T08:39:43Z</time>
      </trkpt>
      <trkpt lat="44.59916" lon="2.3848">
        <ele>471.66</ele>
        <time>2019-07-09T08:39:44Z</time>
      </trkpt>
      <trkpt lat="44.59906" lon="2.38471">
        <ele>472.14</ele>
        <time>2019-07-09T08:39:55Z</time>
      </trkpt>
      <trkpt lat="44.59908" lon="2.38465">
        <ele>473.59</ele>
        <time>2019-07-09T08:40:10Z</time>
      </trkpt>
      <trkpt lat="44.59908" lon="2.38458">
        <ele>474.55</ele>
        <time>2019-07-09T08:40:24Z</time>
      </trkpt>
      <trkpt lat="44.59915" lon="2.38454">
        <ele>473.59</ele>
        <time>2019-07-09T08:40:28Z</time>
      </trkpt>
      <trkpt lat="44.59925" lon="2.38453">
        <ele>474.07</ele>
        <time>2019-07-09T08:40:34Z</time>
      </trkpt>
      <trkpt lat="44.59929" lon="2.38454">
        <ele>474.07</ele>
        <time>2019-07-09T08:40:36Z</time>
      </trkpt>
      <trkpt lat="44.59931" lon="2.38454">
        <ele>475.51</ele>
        <time>2019-07-09T08:40:43Z</time>
      </trkpt>
      <trkpt lat="44.59934" lon="2.38456">
        <ele>477.43</ele>
        <time>2019-07-09T08:40:56Z</time>
      </trkpt>
      <trkpt lat="44.5994" lon="2.38458">
        <ele>477.91</ele>
        <time>2019-07-09T08:41:07Z</time>
      </trkpt>
      <trkpt lat="44.59948" lon="2.38459">
        <ele>479.35</ele>
        <time>2019-07-09T08:41:20Z</time>
      </trkpt>
      <trkpt lat="44.59959" lon="2.38464">
        <ele>480.8</ele>
        <time>2019-07-09T08:41:33Z</time>
      </trkpt>
      <trkpt lat="44.59971" lon="2.38466">
        <ele>482.24</ele>
        <time>2019-07-09T08:41:46Z</time>
      </trkpt>
      <trkpt lat="44.59978" lon="2.38466">
        <ele>483.2</ele>
        <time>2019-07-09T08:41:57Z</time>
      </trkpt>
      <trkpt lat="44.59987" lon="2.38462">
        <ele>485.12</ele>
        <time>2019-07-09T08:42:10Z</time>
      </trkpt>
      <trkpt lat="44.59993" lon="2.38454">
        <ele>486.08</ele>
        <time>2019-07-09T08:42:22Z</time>
      </trkpt>
      <trkpt lat="44.59996" lon="2.38445">
        <ele>487.53</ele>
        <time>2019-07-09T08:42:37Z</time>
      </trkpt>
      <trkpt lat="44.60002" lon="2.38436">
        <ele>489.45</ele>
        <time>2019-07-09T08:42:50Z</time>
      </trkpt>
      <trkpt lat="44.60006" lon="2.38429">
        <ele>490.89</ele>
        <time>2019-07-09T08:43:00Z</time>
      </trkpt>
      <trkpt lat="44.60014" lon="2.38421">
        <ele>491.85</ele>
        <time>2019-07-09T08:43:13Z</time>
      </trkpt>
      <trkpt lat="44.60014" lon="2.38421">
        <ele>492.33</ele>
        <time>2019-07-09T08:43:14Z</time>
      </trkpt>
      <trkpt lat="44.60015" lon="2.38412">
        <ele>494.26</ele>
        <time>2019-07-09T08:43:27Z</time>
      </trkpt>
      <trkpt lat="44.60014" lon="2.38412">
        <ele>495.7</ele>
        <time>2019-07-09T08:43:40Z</time>
      </trkpt>
      <trkpt lat="44.60017" lon="2.384">
        <ele>496.66</ele>
        <time>2019-07-09T08:43:53Z</time>
      </trkpt>
      <trkpt lat="44.60032" lon="2.38394">
        <ele>497.62</ele>
        <time>2019-07-09T08:43:57Z</time>
      </trkpt>
      <trkpt lat="44.6004" lon="2.38389">
        <ele>498.58</ele>
        <time>2019-07-09T08:44:11Z</time>
      </trkpt>
      <trkpt lat="44.60036" lon="2.38388">
        <ele>500.02</ele>
        <time>2019-07-09T08:44:24Z</time>
      </trkpt>
      <trkpt lat="44.60029" lon="2.38388">
        <ele>500.98</ele>
        <time>2019-07-09T08:44:37Z</time>
      </trkpt>
      <trkpt lat="44.60029" lon="2.38388">
        <ele>501.95</ele>
        <time>2019-07-09T08:44:39Z</time>
      </trkpt>
      <trkpt lat="44.60018" lon="2.38392">
        <ele>502.43</ele>
        <time>2019-07-09T08:44:51Z</time>
      </trkpt>
      <trkpt lat="44.60007" lon="2.38396">
        <ele>503.87</ele>
        <time>2019-07-09T08:45:03Z</time>
      </trkpt>
      <trkpt lat="44.59997" lon="2.38396">
        <ele>505.79</ele>
        <time>2019-07-09T08:45:15Z</time>
      </trkpt>
      <trkpt lat="44.59991" lon="2.38394">
        <ele>506.27</ele>
        <time>2019-07-09T08:45:28Z</time>
      </trkpt>
      <trkpt lat="44.59989" lon="2.38394">
        <ele>506.27</ele>
        <time>2019-07-09T08:45:45Z</time>
      </trkpt>
      <trkpt lat="44.59989" lon="2.38394">
        <ele>507.23</ele>
        <time>2019-07-09T08:46:22Z</time>
      </trkpt>
      <trkpt lat="44.59989" lon="2.38393">
        <ele>507.23</ele>
        <time>2019-07-09T08:47:12Z</time>
      </trkpt>
      <trkpt lat="44.59988" lon="2.38394">
        <ele>507.71</ele>
        <time>2019-07-09T08:47:38Z</time>
      </trkpt>
      <trkpt lat="44.59987" lon="2.38394">
        <ele>506.27</ele>
        <time>2019-07-09T08:48:41Z</time>
      </trkpt>
      <trkpt lat="44.59986" lon="2.38393">
        <ele>507.23</ele>
        <time>2019-07-09T08:49:41Z</time>
      </trkpt>
      <trkpt lat="44.59986" lon="2.38393">
        <ele>508.19</ele>
        <time>2019-07-09T08:49:43Z</time>
      </trkpt>
      <trkpt lat="44.59986" lon="2.38392">
        <ele>508.67</ele>
        <time>2019-07-09T08:50:04Z</time>
      </trkpt>
      <trkpt lat="44.59986" lon="2.38391">
        <ele>508.19</ele>
        <time>2019-07-09T08:50:43Z</time>
      </trkpt>
      <trkpt lat="44.59979" lon="2.38386">
        <ele>509.64</ele>
        <time>2019-07-09T08:51:08Z</time>
      </trkpt>
      <trkpt lat="44.59974" lon="2.38379">
        <ele>510.12</ele>
        <time>2019-07-09T08:51:20Z</time>
      </trkpt>
      <trkpt lat="44.59972" lon="2.38375">
        <ele>511.56</ele>
        <time>2019-07-09T08:51:31Z</time>
      </trkpt>
      <trkpt lat="44.59967" lon="2.38369">
        <ele>512.52</ele>
        <time>2019-07-09T08:51:41Z</time>
      </trkpt>
      <trkpt lat="44.59957" lon="2.38363">
        <ele>513.96</ele>
        <time>2019-07-09T08:51:54Z</time>
      </trkpt>
      <trkpt lat="44.59947" lon="2.38358">
        <ele>514.44</ele>
        <time>2019-07-09T08:52:08Z</time>
      </trkpt>
      <trkpt lat="44.59938" lon="2.38352">
        <ele>514.44</ele>
        <time>2019-07-09T08:52:19Z</time>
      </trkpt>
      <trkpt lat="44.59926" lon="2.38351">
        <ele>514.92</ele>
        <time>2019-07-09T08:52:30Z</time>
      </trkpt>
      <trkpt lat="44.5991" lon="2.38356">
        <ele>515.88</ele>
        <time>2019-07-09T08:52:44Z</time>
      </trkpt>
      <trkpt lat="44.59908" lon="2.38357">
        <ele>515.88</ele>
        <time>2019-07-09T08:52:47Z</time>
      </trkpt>
      <trkpt lat="44.59897" lon="2.38362">
        <ele>516.85</ele>
        <time>2019-07-09T08:53:01Z</time>
      </trkpt>
      <trkpt lat="44.59887" lon="2.38368">
        <ele>515.88</ele>
        <time>2019-07-09T08:53:14Z</time>
      </trkpt>
      <trkpt lat="44.5988" lon="2.38374">
        <ele>514.44</ele>
        <time>2019-07-09T08:53:26Z</time>
      </trkpt>
      <trkpt lat="44.59868" lon="2.38368">
        <ele>513.96</ele>
        <time>2019-07-09T08:53:42Z</time>
      </trkpt>
      <trkpt lat="44.59862" lon="2.38363">
        <ele>513.96</ele>
        <time>2019-07-09T08:53:56Z</time>
      </trkpt>
      <trkpt lat="44.59859" lon="2.3836">
        <ele>513.48</ele>
        <time>2019-07-09T08:54:07Z</time>
      </trkpt>
      <trkpt lat="44.59854" lon="2.38342">
        <ele>513.96</ele>
        <time>2019-07-09T08:54:23Z</time>
      </trkpt>
      <trkpt lat="44.59857" lon="2.38331">
        <ele>514.44</ele>
        <time>2019-07-09T08:54:32Z</time>
      </trkpt>
      <trkpt lat="44.59859" lon="2.38321">
        <ele>515.4</ele>
        <time>2019-07-09T08:54:41Z</time>
      </trkpt>
      <trkpt lat="44.5986" lon="2.38317">
        <ele>514.92</ele>
        <time>2019-07-09T08:54:44Z</time>
      </trkpt>
      <trkpt lat="44.59864" lon="2.38301">
        <ele>516.37</ele>
        <time>2019-07-09T08:54:57Z</time>
      </trkpt>
      <trkpt lat="44.59868" lon="2.38282">
        <ele>517.33</ele>
        <time>2019-07-09T08:55:11Z</time>
      </trkpt>
      <trkpt lat="44.59874" lon="2.38266">
        <ele>517.81</ele>
        <time>2019-07-09T08:55:24Z</time>
      </trkpt>
      <trkpt lat="44.59877" lon="2.38246">
        <ele>518.77</ele>
        <time>2019-07-09T08:55:40Z</time>
      </trkpt>
      <trkpt lat="44.59878" lon="2.38236">
        <ele>519.25</ele>
        <time>2019-07-09T08:55:47Z</time>
      </trkpt>
      <trkpt lat="44.59878" lon="2.38215">
        <ele>520.21</ele>
        <time>2019-07-09T08:56:01Z</time>
      </trkpt>
      <trkpt lat="44.59876" lon="2.382">
        <ele>521.17</ele>
        <time>2019-07-09T08:56:13Z</time>
      </trkpt>
      <trkpt lat="44.59865" lon="2.38188">
        <ele>522.13</ele>
        <time>2019-07-09T08:56:25Z</time>
      </trkpt>
      <trkpt lat="44.59855" lon="2.3818">
        <ele>523.09</ele>
        <time>2019-07-09T08:56:38Z</time>
      </trkpt>
      <trkpt lat="44.59844" lon="2.38173">
        <ele>525.02</ele>
        <time>2019-07-09T08:56:50Z</time>
      </trkpt>
      <trkpt lat="44.59833" lon="2.38165">
        <ele>525.02</ele>
        <time>2019-07-09T08:57:04Z</time>
      </trkpt>
      <trkpt lat="44.5983" lon="2.38162">
        <ele>526.46</ele>
        <time>2019-07-09T08:57:07Z</time>
      </trkpt>
      <trkpt lat="44.59817" lon="2.38152">
        <ele>526.94</ele>
        <time>2019-07-09T08:57:21Z</time>
      </trkpt>
      <trkpt lat="44.59811" lon="2.38145">
        <ele>527.9</ele>
        <time>2019-07-09T08:57:29Z</time>
      </trkpt>
      <trkpt lat="44.59807" lon="2.38139">
        <ele>528.38</ele>
        <time>2019-07-09T08:57:36Z</time>
      </trkpt>
      <trkpt lat="44.59801" lon="2.38122">
        <ele>530.3</ele>
        <time>2019-07-09T08:57:50Z</time>
      </trkpt>
      <trkpt lat="44.598" lon="2.38115">
        <ele>531.27</ele>
        <time>2019-07-09T08:57:56Z</time>
      </trkpt>
      <trkpt lat="44.59799" lon="2.38099">
        <ele>531.75</ele>
        <time>2019-07-09T08:58:09Z</time>
      </trkpt>
      <trkpt lat="44.59801" lon="2.3808">
        <ele>533.67</ele>
        <time>2019-07-09T08:58:23Z</time>
      </trkpt>
      <trkpt lat="44.59803" lon="2.38063">
        <ele>533.67</ele>
        <time>2019-07-09T08:58:37Z</time>
      </trkpt>
      <trkpt lat="44.59805" lon="2.38046">
        <ele>535.11</ele>
        <time>2019-07-09T08:58:51Z</time>
      </trkpt>
      <trkpt lat="44.59807" lon="2.38023">
        <ele>535.59</ele>
        <time>2019-07-09T08:59:07Z</time>
      </trkpt>
      <trkpt lat="44.5981" lon="2.38002">
        <ele>536.07</ele>
        <time>2019-07-09T08:59:22Z</time>
      </trkpt>
      <trkpt lat="44.59811" lon="2.37983">
        <ele>537.51</ele>
        <time>2019-07-09T08:59:36Z</time>
      </trkpt>
      <trkpt lat="44.59812" lon="2.37975">
        <ele>537.99</ele>
        <time>2019-07-09T08:59:42Z</time>
      </trkpt>
      <trkpt lat="44.59815" lon="2.37954">
        <ele>538.48</ele>
        <time>2019-07-09T08:59:58Z</time>
      </trkpt>
      <trkpt lat="44.59817" lon="2.3794">
        <ele>539.44</ele>
        <time>2019-07-09T09:00:09Z</time>
      </trkpt>
      <trkpt lat="44.59818" lon="2.37922">
        <ele>539.92</ele>
        <time>2019-07-09T09:00:21Z</time>
      </trkpt>
      <trkpt lat="44.59818" lon="2.37913">
        <ele>539.92</ele>
        <time>2019-07-09T09:00:28Z</time>
      </trkpt>
      <trkpt lat="44.59818" lon="2.37889">
        <ele>540.88</ele>
        <time>2019-07-09T09:00:44Z</time>
      </trkpt>
      <trkpt lat="44.59814" lon="2.37864">
        <ele>540.88</ele>
        <time>2019-07-09T09:01:00Z</time>
      </trkpt>
      <trkpt lat="44.59809" lon="2.37842">
        <ele>540.88</ele>
        <time>2019-07-09T09:01:15Z</time>
      </trkpt>
      <trkpt lat="44.59806" lon="2.37831">
        <ele>540.4</ele>
        <time>2019-07-09T09:01:23Z</time>
      </trkpt>
      <trkpt lat="44.59798" lon="2.37813">
        <ele>540.88</ele>
        <time>2019-07-09T09:01:37Z</time>
      </trkpt>
      <trkpt lat="44.59792" lon="2.37802">
        <ele>541.36</ele>
        <time>2019-07-09T09:01:46Z</time>
      </trkpt>
      <trkpt lat="44.59785" lon="2.3779">
        <ele>541.84</ele>
        <time>2019-07-09T09:01:56Z</time>
      </trkpt>
      <trkpt lat="44.59782" lon="2.37786">
        <ele>542.32</ele>
        <time>2019-07-09T09:02:00Z</time>
      </trkpt>
      <trkpt lat="44.59777" lon="2.37779">
        <ele>542.8</ele>
        <time>2019-07-09T09:02:06Z</time>
      </trkpt>
      <trkpt lat="44.59765" lon="2.37765">
        <ele>542.8</ele>
        <time>2019-07-09T09:02:21Z</time>
      </trkpt>
      <trkpt lat="44.59751" lon="2.37753">
        <ele>542.8</ele>
        <time>2019-07-09T09:02:35Z</time>
      </trkpt>
      <trkpt lat="44.59735" lon="2.3774">
        <ele>543.28</ele>
        <time>2019-07-09T09:02:51Z</time>
      </trkpt>
      <trkpt lat="44.5973" lon="2.37736">
        <ele>543.28</ele>
        <time>2019-07-09T09:02:57Z</time>
      </trkpt>
      <trkpt lat="44.59716" lon="2.37724">
        <ele>543.28</ele>
        <time>2019-07-09T09:03:11Z</time>
      </trkpt>
      <trkpt lat="44.59712" lon="2.37722">
        <ele>543.28</ele>
        <time>2019-07-09T09:03:14Z</time>
      </trkpt>
      <trkpt lat="44.59699" lon="2.37711">
        <ele>543.76</ele>
        <time>2019-07-09T09:03:28Z</time>
      </trkpt>
      <trkpt lat="44.59697" lon="2.3771">
        <ele>543.76</ele>
        <time>2019-07-09T09:03:30Z</time>
      </trkpt>
      <trkpt lat="44.59681" lon="2.37698">
        <ele>543.76</ele>
        <time>2019-07-09T09:03:47Z</time>
      </trkpt>
      <trkpt lat="44.59665" lon="2.37693">
        <ele>546.17</ele>
        <time>2019-07-09T09:04:02Z</time>
      </trkpt>
      <trkpt lat="44.5965" lon="2.37691">
        <ele>544.24</ele>
        <time>2019-07-09T09:04:15Z</time>
      </trkpt>
      <trkpt lat="44.59636" lon="2.37695">
        <ele>544.72</ele>
        <time>2019-07-09T09:04:28Z</time>
      </trkpt>
      <trkpt lat="44.59624" lon="2.37696">
        <ele>544.72</ele>
        <time>2019-07-09T09:04:38Z</time>
      </trkpt>
      <trkpt lat="44.59611" lon="2.37699">
        <ele>544.24</ele>
        <time>2019-07-09T09:04:51Z</time>
      </trkpt>
      <trkpt lat="44.59605" lon="2.37702">
        <ele>545.2</ele>
        <time>2019-07-09T09:04:56Z</time>
      </trkpt>
      <trkpt lat="44.59595" lon="2.37707">
        <ele>545.2</ele>
        <time>2019-07-09T09:05:05Z</time>
      </trkpt>
      <trkpt lat="44.59581" lon="2.37717">
        <ele>545.69</ele>
        <time>2019-07-09T09:05:20Z</time>
      </trkpt>
      <trkpt lat="44.59565" lon="2.37727">
        <ele>546.17</ele>
        <time>2019-07-09T09:05:35Z</time>
      </trkpt>
      <trkpt lat="44.59552" lon="2.37735">
        <ele>546.17</ele>
        <time>2019-07-09T09:05:47Z</time>
      </trkpt>
      <trkpt lat="44.59547" lon="2.37736">
        <ele>545.69</ele>
        <time>2019-07-09T09:05:52Z</time>
      </trkpt>
      <trkpt lat="44.5953" lon="2.37738">
        <ele>546.65</ele>
        <time>2019-07-09T09:06:08Z</time>
      </trkpt>
      <trkpt lat="44.59515" lon="2.37736">
        <ele>547.13</ele>
        <time>2019-07-09T09:06:23Z</time>
      </trkpt>
      <trkpt lat="44.59509" lon="2.37736">
        <ele>548.09</ele>
        <time>2019-07-09T09:06:37Z</time>
      </trkpt>
      <trkpt lat="44.59509" lon="2.37736">
        <ele>547.61</ele>
        <time>2019-07-09T09:07:16Z</time>
      </trkpt>
      <trkpt lat="44.59506" lon="2.37736">
        <ele>548.57</ele>
        <time>2019-07-09T09:08:03Z</time>
      </trkpt>
      <trkpt lat="44.59502" lon="2.37735">
        <ele>548.09</ele>
        <time>2019-07-09T09:08:07Z</time>
      </trkpt>
      <trkpt lat="44.59495" lon="2.37733">
        <ele>547.61</ele>
        <time>2019-07-09T09:08:15Z</time>
      </trkpt>
      <trkpt lat="44.59481" lon="2.37729">
        <ele>547.61</ele>
        <time>2019-07-09T09:08:29Z</time>
      </trkpt>
      <trkpt lat="44.59467" lon="2.37724">
        <ele>547.13</ele>
        <time>2019-07-09T09:08:43Z</time>
      </trkpt>
      <trkpt lat="44.59463" lon="2.37722">
        <ele>547.13</ele>
        <time>2019-07-09T09:08:48Z</time>
      </trkpt>
      <trkpt lat="44.59459" lon="2.3772">
        <ele>547.13</ele>
        <time>2019-07-09T09:08:52Z</time>
      </trkpt>
      <trkpt lat="44.59444" lon="2.37712">
        <ele>547.13</ele>
        <time>2019-07-09T09:09:07Z</time>
      </trkpt>
      <trkpt lat="44.59428" lon="2.37703">
        <ele>545.69</ele>
        <time>2019-07-09T09:09:24Z</time>
      </trkpt>
      <trkpt lat="44.59416" lon="2.37698">
        <ele>546.17</ele>
        <time>2019-07-09T09:09:37Z</time>
      </trkpt>
      <trkpt lat="44.59413" lon="2.37696">
        <ele>546.17</ele>
        <time>2019-07-09T09:09:40Z</time>
      </trkpt>
      <trkpt lat="44.594" lon="2.37687">
        <ele>546.65</ele>
        <time>2019-07-09T09:09:55Z</time>
      </trkpt>
      <trkpt lat="44.59399" lon="2.37687">
        <ele>546.17</ele>
        <time>2019-07-09T09:09:56Z</time>
      </trkpt>
      <trkpt lat="44.59391" lon="2.37684">
        <ele>546.17</ele>
        <time>2019-07-09T09:10:10Z</time>
      </trkpt>
      <trkpt lat="44.59391" lon="2.37683">
        <ele>546.65</ele>
        <time>2019-07-09T09:10:22Z</time>
      </trkpt>
      <trkpt lat="44.59388" lon="2.37679">
        <ele>546.65</ele>
        <time>2019-07-09T09:11:11Z</time>
      </trkpt>
      <trkpt lat="44.59385" lon="2.37669">
        <ele>546.17</ele>
        <time>2019-07-09T09:11:26Z</time>
      </trkpt>
      <trkpt lat="44.5938" lon="2.37671">
        <ele>546.65</ele>
        <time>2019-07-09T09:11:51Z</time>
      </trkpt>
      <trkpt lat="44.59375" lon="2.37669">
        <ele>546.65</ele>
        <time>2019-07-09T09:12:03Z</time>
      </trkpt>
      <trkpt lat="44.59381" lon="2.3766">
        <ele>546.17</ele>
        <time>2019-07-09T09:12:18Z</time>
      </trkpt>
      <trkpt lat="44.59381" lon="2.37646">
        <ele>545.69</ele>
        <time>2019-07-09T09:12:32Z</time>
      </trkpt>
      <trkpt lat="44.5938" lon="2.37639">
        <ele>545.2</ele>
        <time>2019-07-09T09:12:48Z</time>
      </trkpt>
      <trkpt lat="44.5938" lon="2.37636">
        <ele>544.72</ele>
        <time>2019-07-09T09:13:11Z</time>
      </trkpt>
      <trkpt lat="44.59381" lon="2.37648">
        <ele>546.17</ele>
        <time>2019-07-09T09:13:31Z</time>
      </trkpt>
      <trkpt lat="44.59381" lon="2.3765">
        <ele>546.17</ele>
        <time>2019-07-09T09:13:33Z</time>
      </trkpt>
      <trkpt lat="44.5938" lon="2.37668">
        <ele>547.13</ele>
        <time>2019-07-09T09:13:47Z</time>
      </trkpt>
      <trkpt lat="44.59379" lon="2.3767">
        <ele>547.61</ele>
        <time>2019-07-09T09:13:59Z</time>
      </trkpt>
      <trkpt lat="44.5938" lon="2.37672">
        <ele>547.61</ele>
        <time>2019-07-09T09:14:41Z</time>
      </trkpt>
      <trkpt lat="44.5938" lon="2.37671">
        <ele>547.61</ele>
        <time>2019-07-09T09:15:04Z</time>
      </trkpt>
      <trkpt lat="44.59376" lon="2.37671">
        <ele>547.61</ele>
        <time>2019-07-09T09:15:20Z</time>
      </trkpt>
      <trkpt lat="44.59376" lon="2.37671">
        <ele>547.61</ele>
        <time>2019-07-09T09:15:41Z</time>
      </trkpt>
      <trkpt lat="44.59377" lon="2.37671">
        <ele>547.61</ele>
        <time>2019-07-09T09:16:03Z</time>
      </trkpt>
      <trkpt lat="44.59379" lon="2.37676">
        <ele>547.61</ele>
        <time>2019-07-09T09:16:09Z</time>
      </trkpt>
      <trkpt lat="44.59385" lon="2.37681">
        <ele>548.57</ele>
        <time>2019-07-09T09:16:23Z</time>
      </trkpt>
      <trkpt lat="44.59386" lon="2.37686">
        <ele>548.09</ele>
        <time>2019-07-09T09:16:41Z</time>
      </trkpt>
      <trkpt lat="44.59386" lon="2.37688">
        <ele>548.09</ele>
        <time>2019-07-09T09:16:58Z</time>
      </trkpt>
      <trkpt lat="44.59384" lon="2.37693">
        <ele>548.57</ele>
        <time>2019-07-09T09:17:34Z</time>
      </trkpt>
      <trkpt lat="44.59378" lon="2.37702">
        <ele>548.09</ele>
        <time>2019-07-09T09:17:45Z</time>
      </trkpt>
      <trkpt lat="44.59365" lon="2.37719">
        <ele>547.13</ele>
        <time>2019-07-09T09:18:02Z</time>
      </trkpt>
      <trkpt lat="44.59354" lon="2.37729">
        <ele>545.2</ele>
        <time>2019-07-09T09:18:15Z</time>
      </trkpt>
      <trkpt lat="44.59342" lon="2.37739">
        <ele>544.24</ele>
        <time>2019-07-09T09:18:29Z</time>
      </trkpt>
      <trkpt lat="44.5933" lon="2.37751">
        <ele>543.76</ele>
        <time>2019-07-09T09:18:44Z</time>
      </trkpt>
      <trkpt lat="44.59321" lon="2.37759">
        <ele>543.28</ele>
        <time>2019-07-09T09:18:55Z</time>
      </trkpt>
      <trkpt lat="44.5931" lon="2.3777">
        <ele>543.28</ele>
        <time>2019-07-09T09:19:09Z</time>
      </trkpt>
      <trkpt lat="44.59301" lon="2.37784">
        <ele>542.8</ele>
        <time>2019-07-09T09:19:23Z</time>
      </trkpt>
      <trkpt lat="44.59299" lon="2.37794">
        <ele>543.28</ele>
        <time>2019-07-09T09:19:31Z</time>
      </trkpt>
      <trkpt lat="44.59292" lon="2.37814">
        <ele>543.28</ele>
        <time>2019-07-09T09:19:46Z</time>
      </trkpt>
      <trkpt lat="44.59291" lon="2.37817">
        <ele>543.28</ele>
        <time>2019-07-09T09:19:49Z</time>
      </trkpt>
      <trkpt lat="44.59285" lon="2.37835">
        <ele>543.76</ele>
        <time>2019-07-09T09:20:03Z</time>
      </trkpt>
      <trkpt lat="44.5928" lon="2.37849">
        <ele>543.76</ele>
        <time>2019-07-09T09:20:15Z</time>
      </trkpt>
      <trkpt lat="44.59271" lon="2.37864">
        <ele>544.72</ele>
        <time>2019-07-09T09:20:28Z</time>
      </trkpt>
      <trkpt lat="44.59261" lon="2.37875">
        <ele>545.2</ele>
        <time>2019-07-09T09:20:41Z</time>
      </trkpt>
      <trkpt lat="44.59248" lon="2.37884">
        <ele>545.69</ele>
        <time>2019-07-09T09:20:55Z</time>
      </trkpt>
      <trkpt lat="44.59239" lon="2.37892">
        <ele>546.17</ele>
        <time>2019-07-09T09:21:08Z</time>
      </trkpt>
      <trkpt lat="44.59228" lon="2.37903">
        <ele>546.65</ele>
        <time>2019-07-09T09:21:21Z</time>
      </trkpt>
      <trkpt lat="44.59223" lon="2.37906">
        <ele>546.65</ele>
        <time>2019-07-09T09:21:26Z</time>
      </trkpt>
      <trkpt lat="44.59213" lon="2.37917">
        <ele>547.13</ele>
        <time>2019-07-09T09:21:39Z</time>
      </trkpt>
      <trkpt lat="44.59214" lon="2.37926">
        <ele>546.17</ele>
        <time>2019-07-09T09:21:50Z</time>
      </trkpt>
      <trkpt lat="44.59219" lon="2.37945">
        <ele>545.69</ele>
        <time>2019-07-09T09:22:05Z</time>
      </trkpt>
      <trkpt lat="44.59225" lon="2.37964">
        <ele>546.17</ele>
        <time>2019-07-09T09:22:20Z</time>
      </trkpt>
      <trkpt lat="44.5923" lon="2.37984">
        <ele>546.17</ele>
        <time>2019-07-09T09:22:36Z</time>
      </trkpt>
      <trkpt lat="44.59235" lon="2.38002">
        <ele>546.17</ele>
        <time>2019-07-09T09:22:50Z</time>
      </trkpt>
      <trkpt lat="44.59241" lon="2.38022">
        <ele>545.2</ele>
        <time>2019-07-09T09:23:04Z</time>
      </trkpt>
      <trkpt lat="44.59243" lon="2.38035">
        <ele>544.24</ele>
        <time>2019-07-09T09:23:13Z</time>
      </trkpt>
      <trkpt lat="44.59244" lon="2.38038">
        <ele>544.24</ele>
        <time>2019-07-09T09:23:15Z</time>
      </trkpt>
      <trkpt lat="44.59248" lon="2.38058">
        <ele>542.32</ele>
        <time>2019-07-09T09:23:30Z</time>
      </trkpt>
      <trkpt lat="44.5925" lon="2.38069">
        <ele>541.36</ele>
        <time>2019-07-09T09:23:38Z</time>
      </trkpt>
      <trkpt lat="44.59252" lon="2.38089">
        <ele>539.44</ele>
        <time>2019-07-09T09:23:54Z</time>
      </trkpt>
      <trkpt lat="44.59255" lon="2.38107">
        <ele>538.48</ele>
        <time>2019-07-09T09:24:09Z</time>
      </trkpt>
      <trkpt lat="44.59258" lon="2.38128">
        <ele>536.55</ele>
        <time>2019-07-09T09:24:24Z</time>
      </trkpt>
      <trkpt lat="44.59262" lon="2.38146">
        <ele>536.55</ele>
        <time>2019-07-09T09:24:37Z</time>
      </trkpt>
      <trkpt lat="44.59264" lon="2.38164">
        <ele>536.55</ele>
        <time>2019-07-09T09:24:51Z</time>
      </trkpt>
      <trkpt lat="44.59265" lon="2.38168">
        <ele>536.07</ele>
        <time>2019-07-09T09:24:54Z</time>
      </trkpt>
      <trkpt lat="44.59268" lon="2.38191">
        <ele>536.07</ele>
        <time>2019-07-09T09:25:09Z</time>
      </trkpt>
      <trkpt lat="44.5927" lon="2.382">
        <ele>535.59</ele>
        <time>2019-07-09T09:25:16Z</time>
      </trkpt>
      <trkpt lat="44.59275" lon="2.38219">
        <ele>534.15</ele>
        <time>2019-07-09T09:25:30Z</time>
      </trkpt>
      <trkpt lat="44.5928" lon="2.38236">
        <ele>535.11</ele>
        <time>2019-07-09T09:25:45Z</time>
      </trkpt>
      <trkpt lat="44.59286" lon="2.38255">
        <ele>534.63</ele>
        <time>2019-07-09T09:25:59Z</time>
      </trkpt>
      <trkpt lat="44.59293" lon="2.38279">
        <ele>534.15</ele>
        <time>2019-07-09T09:26:16Z</time>
      </trkpt>
      <trkpt lat="44.59299" lon="2.38304">
        <ele>534.63</ele>
        <time>2019-07-09T09:26:33Z</time>
      </trkpt>
      <trkpt lat="44.593" lon="2.38308">
        <ele>535.11</ele>
        <time>2019-07-09T09:26:36Z</time>
      </trkpt>
      <trkpt lat="44.59305" lon="2.3833">
        <ele>534.63</ele>
        <time>2019-07-09T09:26:52Z</time>
      </trkpt>
      <trkpt lat="44.59307" lon="2.38349">
        <ele>535.59</ele>
        <time>2019-07-09T09:27:05Z</time>
      </trkpt>
      <trkpt lat="44.59307" lon="2.38372">
        <ele>533.67</ele>
        <time>2019-07-09T09:27:21Z</time>
      </trkpt>
      <trkpt lat="44.59311" lon="2.38392">
        <ele>532.23</ele>
        <time>2019-07-09T09:27:38Z</time>
      </trkpt>
      <trkpt lat="44.59312" lon="2.38393">
        <ele>531.75</ele>
        <time>2019-07-09T09:27:39Z</time>
      </trkpt>
      <trkpt lat="44.59321" lon="2.38413">
        <ele>530.3</ele>
        <time>2019-07-09T09:27:58Z</time>
      </trkpt>
      <trkpt lat="44.59327" lon="2.38428">
        <ele>528.38</ele>
        <time>2019-07-09T09:28:14Z</time>
      </trkpt>
      <trkpt lat="44.59327" lon="2.38431">
        <ele>527.9</ele>
        <time>2019-07-09T09:28:37Z</time>
      </trkpt>
      <trkpt lat="44.59327" lon="2.38431">
        <ele>527.42</ele>
        <time>2019-07-09T09:30:16Z</time>
      </trkpt>
      <trkpt lat="44.59327" lon="2.38431">
        <ele>527.42</ele>
        <time>2019-07-09T09:30:45Z</time>
      </trkpt>
      <trkpt lat="44.59329" lon="2.38437">
        <ele>525.5</ele>
        <time>2019-07-09T09:31:00Z</time>
      </trkpt>
      <trkpt lat="44.5934" lon="2.38455">
        <ele>523.09</ele>
        <time>2019-07-09T09:31:14Z</time>
      </trkpt>
      <trkpt lat="44.59352" lon="2.38468">
        <ele>521.65</ele>
        <time>2019-07-09T09:31:27Z</time>
      </trkpt>
      <trkpt lat="44.59366" lon="2.38484">
        <ele>518.77</ele>
        <time>2019-07-09T09:31:48Z</time>
      </trkpt>
      <trkpt lat="44.59374" lon="2.38495">
        <ele>517.33</ele>
        <time>2019-07-09T09:32:01Z</time>
      </trkpt>
      <trkpt lat="44.59386" lon="2.38512">
        <ele>514.92</ele>
        <time>2019-07-09T09:32:18Z</time>
      </trkpt>
      <trkpt lat="44.59396" lon="2.38525">
        <ele>514.44</ele>
        <time>2019-07-09T09:32:34Z</time>
      </trkpt>
      <trkpt lat="44.59405" lon="2.38537">
        <ele>513.48</ele>
        <time>2019-07-09T09:32:47Z</time>
      </trkpt>
      <trkpt lat="44.59409" lon="2.38559">
        <ele>513.48</ele>
        <time>2019-07-09T09:33:03Z</time>
      </trkpt>
      <trkpt lat="44.59403" lon="2.38574">
        <ele>511.08</ele>
        <time>2019-07-09T09:33:17Z</time>
      </trkpt>
      <trkpt lat="44.594" lon="2.38588">
        <ele>510.12</ele>
        <time>2019-07-09T09:33:28Z</time>
      </trkpt>
      <trkpt lat="44.59397" lon="2.38603">
        <ele>509.16</ele>
        <time>2019-07-09T09:33:41Z</time>
      </trkpt>
      <trkpt lat="44.59394" lon="2.38615">
        <ele>507.23</ele>
        <time>2019-07-09T09:33:54Z</time>
      </trkpt>
      <trkpt lat="44.59394" lon="2.38619">
        <ele>507.23</ele>
        <time>2019-07-09T09:33:58Z</time>
      </trkpt>
      <trkpt lat="44.59392" lon="2.38637">
        <ele>506.27</ele>
        <time>2019-07-09T09:34:13Z</time>
      </trkpt>
      <trkpt lat="44.59391" lon="2.3864">
        <ele>506.27</ele>
        <time>2019-07-09T09:34:16Z</time>
      </trkpt>
      <trkpt lat="44.59385" lon="2.38654">
        <ele>503.87</ele>
        <time>2019-07-09T09:34:30Z</time>
      </trkpt>
      <trkpt lat="44.59381" lon="2.38666">
        <ele>502.91</ele>
        <time>2019-07-09T09:34:42Z</time>
      </trkpt>
      <trkpt lat="44.59376" lon="2.38681">
        <ele>500.5</ele>
        <time>2019-07-09T09:34:57Z</time>
      </trkpt>
      <trkpt lat="44.59371" lon="2.38686">
        <ele>498.58</ele>
        <time>2019-07-09T09:35:09Z</time>
      </trkpt>
      <trkpt lat="44.59371" lon="2.38689">
        <ele>498.1</ele>
        <time>2019-07-09T09:35:21Z</time>
      </trkpt>
      <trkpt lat="44.59371" lon="2.38689">
        <ele>498.1</ele>
        <time>2019-07-09T09:35:37Z</time>
      </trkpt>
      <trkpt lat="44.59371" lon="2.3869">
        <ele>498.1</ele>
        <time>2019-07-09T09:35:57Z</time>
      </trkpt>
      <trkpt lat="44.59368" lon="2.38696">
        <ele>497.14</ele>
        <time>2019-07-09T09:36:19Z</time>
      </trkpt>
      <trkpt lat="44.59361" lon="2.38704">
        <ele>495.22</ele>
        <time>2019-07-09T09:36:32Z</time>
      </trkpt>
      <trkpt lat="44.59355" lon="2.38711">
        <ele>492.33</ele>
        <time>2019-07-09T09:36:47Z</time>
      </trkpt>
      <trkpt lat="44.59353" lon="2.38723">
        <ele>491.37</ele>
        <time>2019-07-09T09:37:00Z</time>
      </trkpt>
      <trkpt lat="44.59351" lon="2.38734">
        <ele>488.97</ele>
        <time>2019-07-09T09:37:14Z</time>
      </trkpt>
      <trkpt lat="44.5935" lon="2.38737">
        <ele>488.49</ele>
        <time>2019-07-09T09:37:18Z</time>
      </trkpt>
      <trkpt lat="44.59347" lon="2.38748">
        <ele>486.56</ele>
        <time>2019-07-09T09:37:30Z</time>
      </trkpt>
      <trkpt lat="44.5935" lon="2.38757">
        <ele>484.64</ele>
        <time>2019-07-09T09:37:44Z</time>
      </trkpt>
      <trkpt lat="44.59348" lon="2.38765">
        <ele>482.24</ele>
        <time>2019-07-09T09:37:55Z</time>
      </trkpt>
      <trkpt lat="44.59342" lon="2.38767">
        <ele>481.76</ele>
        <time>2019-07-09T09:38:05Z</time>
      </trkpt>
      <trkpt lat="44.59333" lon="2.38766">
        <ele>479.84</ele>
        <time>2019-07-09T09:38:18Z</time>
      </trkpt>
      <trkpt lat="44.59328" lon="2.38764">
        <ele>478.87</ele>
        <time>2019-07-09T09:38:29Z</time>
      </trkpt>
      <trkpt lat="44.59323" lon="2.38767">
        <ele>476.95</ele>
        <time>2019-07-09T09:38:39Z</time>
      </trkpt>
      <trkpt lat="44.59322" lon="2.38776">
        <ele>475.99</ele>
        <time>2019-07-09T09:38:50Z</time>
      </trkpt>
      <trkpt lat="44.59326" lon="2.38783">
        <ele>474.55</ele>
        <time>2019-07-09T09:39:05Z</time>
      </trkpt>
      <trkpt lat="44.59335" lon="2.38787">
        <ele>473.11</ele>
        <time>2019-07-09T09:39:19Z</time>
      </trkpt>
      <trkpt lat="44.59344" lon="2.38794">
        <ele>470.7</ele>
        <time>2019-07-09T09:39:34Z</time>
      </trkpt>
      <trkpt lat="44.59353" lon="2.38804">
        <ele>469.26</ele>
        <time>2019-07-09T09:39:47Z</time>
      </trkpt>
      <trkpt lat="44.59359" lon="2.38809">
        <ele>468.3</ele>
        <time>2019-07-09T09:40:02Z</time>
      </trkpt>
      <trkpt lat="44.59367" lon="2.38818">
        <ele>466.38</ele>
        <time>2019-07-09T09:40:16Z</time>
      </trkpt>
      <trkpt lat="44.59376" lon="2.38828">
        <ele>464.45</ele>
        <time>2019-07-09T09:40:31Z</time>
      </trkpt>
      <trkpt lat="44.59385" lon="2.38835">
        <ele>462.53</ele>
        <time>2019-07-09T09:40:44Z</time>
      </trkpt>
      <trkpt lat="44.59393" lon="2.38843">
        <ele>460.13</ele>
        <time>2019-07-09T09:40:58Z</time>
      </trkpt>
      <trkpt lat="44.59399" lon="2.38849">
        <ele>458.21</ele>
        <time>2019-07-09T09:41:11Z</time>
      </trkpt>
      <trkpt lat="44.59408" lon="2.38854">
        <ele>455.8</ele>
        <time>2019-07-09T09:41:24Z</time>
      </trkpt>
      <trkpt lat="44.59416" lon="2.38858">
        <ele>452.92</ele>
        <time>2019-07-09T09:41:39Z</time>
      </trkpt>
      <trkpt lat="44.59421" lon="2.38859">
        <ele>450.03</ele>
        <time>2019-07-09T09:41:52Z</time>
      </trkpt>
      <trkpt lat="44.59428" lon="2.38866">
        <ele>449.07</ele>
        <time>2019-07-09T09:42:09Z</time>
      </trkpt>
      <trkpt lat="44.59429" lon="2.38866">
        <ele>449.07</ele>
        <time>2019-07-09T09:42:38Z</time>
      </trkpt>
      <trkpt lat="44.5943" lon="2.38864">
        <ele>448.11</ele>
        <time>2019-07-09T09:43:34Z</time>
      </trkpt>
      <trkpt lat="44.5943" lon="2.38865">
        <ele>449.07</ele>
        <time>2019-07-09T09:44:16Z</time>
      </trkpt>
      <trkpt lat="44.5944" lon="2.38871">
        <ele>447.15</ele>
        <time>2019-07-09T09:45:10Z</time>
      </trkpt>
      <trkpt lat="44.5945" lon="2.38876">
        <ele>444.27</ele>
        <time>2019-07-09T09:45:22Z</time>
      </trkpt>
      <trkpt lat="44.5946" lon="2.38888">
        <ele>441.38</ele>
        <time>2019-07-09T09:45:36Z</time>
      </trkpt>
      <trkpt lat="44.59471" lon="2.38899">
        <ele>439.46</ele>
        <time>2019-07-09T09:45:49Z</time>
      </trkpt>
      <trkpt lat="44.59479" lon="2.38905">
        <ele>437.06</ele>
        <time>2019-07-09T09:46:02Z</time>
      </trkpt>
      <trkpt lat="44.59488" lon="2.38908">
        <ele>435.13</ele>
        <time>2019-07-09T09:46:17Z</time>
      </trkpt>
      <trkpt lat="44.595" lon="2.38911">
        <ele>433.21</ele>
        <time>2019-07-09T09:46:30Z</time>
      </trkpt>
      <trkpt lat="44.59512" lon="2.3891">
        <ele>431.77</ele>
        <time>2019-07-09T09:46:43Z</time>
      </trkpt>
      <trkpt lat="44.59521" lon="2.38909">
        <ele>429.85</ele>
        <time>2019-07-09T09:46:57Z</time>
      </trkpt>
      <trkpt lat="44.59529" lon="2.38909">
        <ele>427.92</ele>
        <time>2019-07-09T09:47:10Z</time>
      </trkpt>
      <trkpt lat="44.59537" lon="2.38899">
        <ele>425.52</ele>
        <time>2019-07-09T09:47:24Z</time>
      </trkpt>
      <trkpt lat="44.59539" lon="2.38887">
        <ele>424.08</ele>
        <time>2019-07-09T09:47:38Z</time>
      </trkpt>
      <trkpt lat="44.59541" lon="2.38881">
        <ele>422.16</ele>
        <time>2019-07-09T09:47:46Z</time>
      </trkpt>
      <trkpt lat="44.59545" lon="2.38869">
        <ele>419.75</ele>
        <time>2019-07-09T09:48:00Z</time>
      </trkpt>
      <trkpt lat="44.59549" lon="2.3886">
        <ele>416.87</ele>
        <time>2019-07-09T09:48:13Z</time>
      </trkpt>
      <trkpt lat="44.59552" lon="2.38847">
        <ele>414.47</ele>
        <time>2019-07-09T09:48:27Z</time>
      </trkpt>
      <trkpt lat="44.59556" lon="2.38833">
        <ele>411.58</ele>
        <time>2019-07-09T09:48:43Z</time>
      </trkpt>
      <trkpt lat="44.5956" lon="2.38825">
        <ele>409.18</ele>
        <time>2019-07-09T09:48:58Z</time>
      </trkpt>
      <trkpt lat="44.59562" lon="2.38818">
        <ele>406.29</ele>
        <time>2019-07-09T09:49:13Z</time>
      </trkpt>
      <trkpt lat="44.59563" lon="2.38799">
        <ele>404.37</ele>
        <time>2019-07-09T09:49:26Z</time>
      </trkpt>
      <trkpt lat="44.59563" lon="2.38789">
        <ele>401.49</ele>
        <time>2019-07-09T09:49:42Z</time>
      </trkpt>
      <trkpt lat="44.59567" lon="2.38779">
        <ele>399.57</ele>
        <time>2019-07-09T09:49:57Z</time>
      </trkpt>
      <trkpt lat="44.59574" lon="2.3876">
        <ele>396.68</ele>
        <time>2019-07-09T09:50:13Z</time>
      </trkpt>
      <trkpt lat="44.59577" lon="2.38748">
        <ele>394.28</ele>
        <time>2019-07-09T09:50:28Z</time>
      </trkpt>
      <trkpt lat="44.59579" lon="2.38745">
        <ele>391.87</ele>
        <time>2019-07-09T09:50:45Z</time>
      </trkpt>
      <trkpt lat="44.59588" lon="2.3873">
        <ele>388.51</ele>
        <time>2019-07-09T09:51:07Z</time>
      </trkpt>
      <trkpt lat="44.59591" lon="2.38723">
        <ele>388.03</ele>
        <time>2019-07-09T09:51:26Z</time>
      </trkpt>
      <trkpt lat="44.5959" lon="2.38721">
        <ele>388.51</ele>
        <time>2019-07-09T09:53:08Z</time>
      </trkpt>
      <trkpt lat="44.59593" lon="2.38716">
        <ele>388.03</ele>
        <time>2019-07-09T09:53:53Z</time>
      </trkpt>
      <trkpt lat="44.59594" lon="2.38713">
        <ele>388.03</ele>
        <time>2019-07-09T09:54:26Z</time>
      </trkpt>
      <trkpt lat="44.59599" lon="2.387">
        <ele>386.11</ele>
        <time>2019-07-09T09:54:39Z</time>
      </trkpt>
      <trkpt lat="44.596" lon="2.38696">
        <ele>384.66</ele>
        <time>2019-07-09T09:54:56Z</time>
      </trkpt>
      <trkpt lat="44.59598" lon="2.38698">
        <ele>385.15</ele>
        <time>2019-07-09T09:55:25Z</time>
      </trkpt>
      <trkpt lat="44.59605" lon="2.38686">
        <ele>383.22</ele>
        <time>2019-07-09T09:55:43Z</time>
      </trkpt>
      <trkpt lat="44.59611" lon="2.38682">
        <ele>380.82</ele>
        <time>2019-07-09T09:55:58Z</time>
      </trkpt>
      <trkpt lat="44.59615" lon="2.38694">
        <ele>378.42</ele>
        <time>2019-07-09T09:56:13Z</time>
      </trkpt>
      <trkpt lat="44.59614" lon="2.38703">
        <ele>376.97</ele>
        <time>2019-07-09T09:56:25Z</time>
      </trkpt>
      <trkpt lat="44.59613" lon="2.38711">
        <ele>376.01</ele>
        <time>2019-07-09T09:56:40Z</time>
      </trkpt>
      <trkpt lat="44.59613" lon="2.38711">
        <ele>376.49</ele>
        <time>2019-07-09T09:57:18Z</time>
      </trkpt>
      <trkpt lat="44.59611" lon="2.38714">
        <ele>376.01</ele>
        <time>2019-07-09T09:57:33Z</time>
      </trkpt>
      <trkpt lat="44.59609" lon="2.38717">
        <ele>376.01</ele>
        <time>2019-07-09T09:57:44Z</time>
      </trkpt>
      <trkpt lat="44.59609" lon="2.38717">
        <ele>375.53</ele>
        <time>2019-07-09T09:58:06Z</time>
      </trkpt>
      <trkpt lat="44.59609" lon="2.38717">
        <ele>375.53</ele>
        <time>2019-07-09T09:58:30Z</time>
      </trkpt>
      <trkpt lat="44.59608" lon="2.38719">
        <ele>375.53</ele>
        <time>2019-07-09T09:59:02Z</time>
      </trkpt>
      <trkpt lat="44.59616" lon="2.3872">
        <ele>375.53</ele>
        <time>2019-07-09T09:59:29Z</time>
      </trkpt>
      <trkpt lat="44.59615" lon="2.38718">
        <ele>375.53</ele>
        <time>2019-07-09T09:59:46Z</time>
      </trkpt>
      <trkpt lat="44.59616" lon="2.38706">
        <ele>374.57</ele>
        <time>2019-07-09T10:00:00Z</time>
      </trkpt>
      <trkpt lat="44.59616" lon="2.38703">
        <ele>374.57</ele>
        <time>2019-07-09T10:00:02Z</time>
      </trkpt>
      <trkpt lat="44.59625" lon="2.38695">
        <ele>372.65</ele>
        <time>2019-07-09T10:00:17Z</time>
      </trkpt>
      <trkpt lat="44.59624" lon="2.38703">
        <ele>370.73</ele>
        <time>2019-07-09T10:00:31Z</time>
      </trkpt>
      <trkpt lat="44.59622" lon="2.38709">
        <ele>368.8</ele>
        <time>2019-07-09T10:00:42Z</time>
      </trkpt>
      <trkpt lat="44.59621" lon="2.3871">
        <ele>368.32</ele>
        <time>2019-07-09T10:01:03Z</time>
      </trkpt>
      <trkpt lat="44.59621" lon="2.38714">
        <ele>367.36</ele>
        <time>2019-07-09T10:01:20Z</time>
      </trkpt>
      <trkpt lat="44.59623" lon="2.3872">
        <ele>364.96</ele>
        <time>2019-07-09T10:01:32Z</time>
      </trkpt>
      <trkpt lat="44.59622" lon="2.38724">
        <ele>364.96</ele>
        <time>2019-07-09T10:01:44Z</time>
      </trkpt>
      <trkpt lat="44.59623" lon="2.38729">
        <ele>364</ele>
        <time>2019-07-09T10:01:56Z</time>
      </trkpt>
      <trkpt lat="44.59622" lon="2.38732">
        <ele>363.04</ele>
        <time>2019-07-09T10:02:10Z</time>
      </trkpt>
      <trkpt lat="44.59622" lon="2.38738">
        <ele>362.07</ele>
        <time>2019-07-09T10:02:28Z</time>
      </trkpt>
      <trkpt lat="44.59625" lon="2.38743">
        <ele>360.15</ele>
        <time>2019-07-09T10:02:45Z</time>
      </trkpt>
      <trkpt lat="44.59629" lon="2.38738">
        <ele>358.71</ele>
        <time>2019-07-09T10:02:59Z</time>
      </trkpt>
      <trkpt lat="44.5963" lon="2.38736">
        <ele>357.27</ele>
        <time>2019-07-09T10:03:15Z</time>
      </trkpt>
      <trkpt lat="44.59632" lon="2.38734">
        <ele>356.31</ele>
        <time>2019-07-09T10:03:27Z</time>
      </trkpt>
      <trkpt lat="44.59631" lon="2.38738">
        <ele>354.86</ele>
        <time>2019-07-09T10:03:41Z</time>
      </trkpt>
      <trkpt lat="44.59631" lon="2.3875">
        <ele>353.42</ele>
        <time>2019-07-09T10:03:54Z</time>
      </trkpt>
      <trkpt lat="44.59633" lon="2.38763">
        <ele>351.5</ele>
        <time>2019-07-09T10:04:10Z</time>
      </trkpt>
      <trkpt lat="44.59632" lon="2.38771">
        <ele>350.54</ele>
        <time>2019-07-09T10:04:24Z</time>
      </trkpt>
      <trkpt lat="44.59634" lon="2.38777">
        <ele>348.62</ele>
        <time>2019-07-09T10:04:37Z</time>
      </trkpt>
      <trkpt lat="44.59636" lon="2.38784">
        <ele>347.65</ele>
        <time>2019-07-09T10:04:47Z</time>
      </trkpt>
      <trkpt lat="44.59637" lon="2.38791">
        <ele>345.73</ele>
        <time>2019-07-09T10:04:59Z</time>
      </trkpt>
      <trkpt lat="44.59643" lon="2.38801">
        <ele>343.33</ele>
        <time>2019-07-09T10:05:14Z</time>
      </trkpt>
      <trkpt lat="44.59643" lon="2.38806">
        <ele>341.89</ele>
        <time>2019-07-09T10:05:20Z</time>
      </trkpt>
      <trkpt lat="44.59644" lon="2.38812">
        <ele>339.96</ele>
        <time>2019-07-09T10:05:32Z</time>
      </trkpt>
      <trkpt lat="44.59643" lon="2.38813">
        <ele>338.04</ele>
        <time>2019-07-09T10:05:48Z</time>
      </trkpt>
      <trkpt lat="44.59646" lon="2.38825">
        <ele>336.6</ele>
        <time>2019-07-09T10:06:03Z</time>
      </trkpt>
      <trkpt lat="44.59648" lon="2.38841">
        <ele>334.2</ele>
        <time>2019-07-09T10:06:16Z</time>
      </trkpt>
      <trkpt lat="44.59653" lon="2.38847">
        <ele>331.79</ele>
        <time>2019-07-09T10:06:31Z</time>
      </trkpt>
      <trkpt lat="44.59659" lon="2.38855">
        <ele>330.35</ele>
        <time>2019-07-09T10:06:44Z</time>
      </trkpt>
      <trkpt lat="44.59663" lon="2.38863">
        <ele>328.43</ele>
        <time>2019-07-09T10:06:59Z</time>
      </trkpt>
      <trkpt lat="44.59667" lon="2.38874">
        <ele>326.5</ele>
        <time>2019-07-09T10:07:11Z</time>
      </trkpt>
      <trkpt lat="44.59667" lon="2.38888">
        <ele>326.02</ele>
        <time>2019-07-09T10:07:26Z</time>
      </trkpt>
      <trkpt lat="44.59664" lon="2.38898">
        <ele>324.58</ele>
        <time>2019-07-09T10:07:40Z</time>
      </trkpt>
      <trkpt lat="44.59662" lon="2.38902">
        <ele>323.14</ele>
        <time>2019-07-09T10:07:51Z</time>
      </trkpt>
      <trkpt lat="44.59662" lon="2.38907">
        <ele>322.18</ele>
        <time>2019-07-09T10:08:06Z</time>
      </trkpt>
      <trkpt lat="44.59662" lon="2.38907">
        <ele>321.22</ele>
        <time>2019-07-09T10:08:29Z</time>
      </trkpt>
      <trkpt lat="44.59662" lon="2.38907">
        <ele>321.7</ele>
        <time>2019-07-09T10:09:11Z</time>
      </trkpt>
      <trkpt lat="44.59662" lon="2.38909">
        <ele>321.7</ele>
        <time>2019-07-09T10:09:56Z</time>
      </trkpt>
      <trkpt lat="44.59662" lon="2.38909">
        <ele>321.22</ele>
        <time>2019-07-09T10:10:43Z</time>
      </trkpt>
      <trkpt lat="44.59662" lon="2.38911">
        <ele>321.22</ele>
        <time>2019-07-09T10:11:27Z</time>
      </trkpt>
      <trkpt lat="44.59665" lon="2.38917">
        <ele>319.78</ele>
        <time>2019-07-09T10:12:08Z</time>
      </trkpt>
      <trkpt lat="44.59667" lon="2.38932">
        <ele>318.33</ele>
        <time>2019-07-09T10:12:21Z</time>
      </trkpt>
      <trkpt lat="44.59667" lon="2.38932">
        <ele>316.89</ele>
        <time>2019-07-09T10:12:29Z</time>
      </trkpt>
      <trkpt lat="44.5967" lon="2.38937">
        <ele>314.97</ele>
        <time>2019-07-09T10:12:40Z</time>
      </trkpt>
      <trkpt lat="44.59667" lon="2.38944">
        <ele>312.09</ele>
        <time>2019-07-09T10:12:55Z</time>
      </trkpt>
      <trkpt lat="44.59667" lon="2.38944">
        <ele>310.64</ele>
        <time>2019-07-09T10:13:08Z</time>
      </trkpt>
      <trkpt lat="44.59667" lon="2.38944">
        <ele>307.76</ele>
        <time>2019-07-09T10:13:23Z</time>
      </trkpt>
      <trkpt lat="44.59667" lon="2.38945">
        <ele>306.8</ele>
        <time>2019-07-09T10:13:40Z</time>
      </trkpt>
      <trkpt lat="44.59668" lon="2.38959">
        <ele>305.36</ele>
        <time>2019-07-09T10:13:52Z</time>
      </trkpt>
      <trkpt lat="44.59672" lon="2.38963">
        <ele>305.36</ele>
        <time>2019-07-09T10:14:05Z</time>
      </trkpt>
      <trkpt lat="44.59673" lon="2.38962">
        <ele>305.36</ele>
        <time>2019-07-09T10:14:26Z</time>
      </trkpt>
      <trkpt lat="44.59673" lon="2.38962">
        <ele>304.88</ele>
        <time>2019-07-09T10:14:51Z</time>
      </trkpt>
      <trkpt lat="44.59673" lon="2.38963">
        <ele>304.88</ele>
        <time>2019-07-09T10:15:47Z</time>
      </trkpt>
      <trkpt lat="44.59676" lon="2.38969">
        <ele>302.95</ele>
        <time>2019-07-09T10:16:30Z</time>
      </trkpt>
      <trkpt lat="44.59676" lon="2.38969">
        <ele>301.03</ele>
        <time>2019-07-09T10:16:43Z</time>
      </trkpt>
      <trkpt lat="44.59678" lon="2.38979">
        <ele>298.63</ele>
        <time>2019-07-09T10:16:55Z</time>
      </trkpt>
      <trkpt lat="44.59679" lon="2.3898">
        <ele>296.7</ele>
        <time>2019-07-09T10:17:13Z</time>
      </trkpt>
      <trkpt lat="44.59681" lon="2.38983">
        <ele>295.74</ele>
        <time>2019-07-09T10:17:31Z</time>
      </trkpt>
      <trkpt lat="44.59684" lon="2.38991">
        <ele>294.3</ele>
        <time>2019-07-09T10:17:57Z</time>
      </trkpt>
      <trkpt lat="44.59688" lon="2.39001">
        <ele>292.86</ele>
        <time>2019-07-09T10:18:44Z</time>
      </trkpt>
      <trkpt lat="44.59694" lon="2.39014">
        <ele>290.94</ele>
        <time>2019-07-09T10:18:59Z</time>
      </trkpt>
      <trkpt lat="44.59697" lon="2.39017">
        <ele>288.53</ele>
        <time>2019-07-09T10:19:12Z</time>
      </trkpt>
      <trkpt lat="44.59699" lon="2.3902">
        <ele>286.61</ele>
        <time>2019-07-09T10:19:23Z</time>
      </trkpt>
      <trkpt lat="44.59703" lon="2.39029">
        <ele>286.13</ele>
        <time>2019-07-09T10:19:36Z</time>
      </trkpt>
      <trkpt lat="44.59705" lon="2.39031">
        <ele>283.73</ele>
        <time>2019-07-09T10:19:50Z</time>
      </trkpt>
      <trkpt lat="44.59705" lon="2.39031">
        <ele>281.8</ele>
        <time>2019-07-09T10:20:13Z</time>
      </trkpt>
      <trkpt lat="44.59706" lon="2.3903">
        <ele>280.36</ele>
        <time>2019-07-09T10:20:33Z</time>
      </trkpt>
      <trkpt lat="44.59713" lon="2.39024">
        <ele>278.44</ele>
        <time>2019-07-09T10:20:46Z</time>
      </trkpt>
      <trkpt lat="44.59723" lon="2.39029">
        <ele>276.52</ele>
        <time>2019-07-09T10:21:00Z</time>
      </trkpt>
      <trkpt lat="44.5973" lon="2.39033">
        <ele>274.59</ele>
        <time>2019-07-09T10:21:13Z</time>
      </trkpt>
      <trkpt lat="44.5973" lon="2.39039">
        <ele>273.15</ele>
        <time>2019-07-09T10:21:26Z</time>
      </trkpt>
      <trkpt lat="44.59729" lon="2.39042">
        <ele>271.71</ele>
        <time>2019-07-09T10:21:38Z</time>
      </trkpt>
      <trkpt lat="44.59735" lon="2.39044">
        <ele>269.79</ele>
        <time>2019-07-09T10:21:54Z</time>
      </trkpt>
      <trkpt lat="44.59734" lon="2.39049">
        <ele>268.35</ele>
        <time>2019-07-09T10:22:07Z</time>
      </trkpt>
      <trkpt lat="44.59733" lon="2.39053">
        <ele>266.42</ele>
        <time>2019-07-09T10:22:22Z</time>
      </trkpt>
      <trkpt lat="44.59735" lon="2.39057">
        <ele>264.5</ele>
        <time>2019-07-09T10:22:36Z</time>
      </trkpt>
      <trkpt lat="44.59744" lon="2.39059">
        <ele>262.1</ele>
        <time>2019-07-09T10:22:54Z</time>
      </trkpt>
      <trkpt lat="44.59751" lon="2.39068">
        <ele>260.17</ele>
        <time>2019-07-09T10:23:06Z</time>
      </trkpt>
      <trkpt lat="44.59754" lon="2.3907">
        <ele>259.21</ele>
        <time>2019-07-09T10:23:22Z</time>
      </trkpt>
      <trkpt lat="44.59758" lon="2.39069">
        <ele>257.29</ele>
        <time>2019-07-09T10:23:39Z</time>
      </trkpt>
      <trkpt lat="44.59761" lon="2.39074">
        <ele>255.37</ele>
        <time>2019-07-09T10:23:54Z</time>
      </trkpt>
      <trkpt lat="44.59762" lon="2.39078">
        <ele>252.48</ele>
        <time>2019-07-09T10:24:15Z</time>
      </trkpt>
      <trkpt lat="44.59766" lon="2.39089">
        <ele>250.56</ele>
        <time>2019-07-09T10:24:30Z</time>
      </trkpt>
      <trkpt lat="44.5977" lon="2.39086">
        <ele>249.12</ele>
        <time>2019-07-09T10:24:47Z</time>
      </trkpt>
      <trkpt lat="44.59771" lon="2.39093">
        <ele>248.16</ele>
        <time>2019-07-09T10:25:01Z</time>
      </trkpt>
      <trkpt lat="44.59769" lon="2.39103">
        <ele>246.23</ele>
        <time>2019-07-09T10:25:17Z</time>
      </trkpt>
      <trkpt lat="44.5977" lon="2.39103">
        <ele>246.23</ele>
        <time>2019-07-09T10:25:58Z</time>
      </trkpt>
      <trkpt lat="44.59771" lon="2.39102">
        <ele>248.16</ele>
        <time>2019-07-09T10:27:37Z</time>
      </trkpt>
      <trkpt lat="44.59769" lon="2.39098">
        <ele>249.12</ele>
        <time>2019-07-09T10:27:50Z</time>
      </trkpt>
      <trkpt lat="44.59772" lon="2.39098">
        <ele>247.68</ele>
        <time>2019-07-09T10:28:03Z</time>
      </trkpt>
      <trkpt lat="44.5977" lon="2.39101">
        <ele>246.23</ele>
        <time>2019-07-09T10:28:19Z</time>
      </trkpt>
      <trkpt lat="44.59771" lon="2.39101">
        <ele>246.72</ele>
        <time>2019-07-09T10:28:44Z</time>
      </trkpt>
      <trkpt lat="44.59772" lon="2.39104">
        <ele>245.27</ele>
        <time>2019-07-09T10:29:09Z</time>
      </trkpt>
      <trkpt lat="44.59772" lon="2.39112">
        <ele>245.27</ele>
        <time>2019-07-09T10:29:33Z</time>
      </trkpt>
      <trkpt lat="44.59782" lon="2.39119">
        <ele>244.31</ele>
        <time>2019-07-09T10:29:49Z</time>
      </trkpt>
      <trkpt lat="44.59797" lon="2.39126">
        <ele>242.87</ele>
        <time>2019-07-09T10:30:04Z</time>
      </trkpt>
      <trkpt lat="44.59801" lon="2.39136">
        <ele>241.43</ele>
        <time>2019-07-09T10:30:18Z</time>
      </trkpt>
      <trkpt lat="44.59809" lon="2.39144">
        <ele>240.47</ele>
        <time>2019-07-09T10:30:31Z</time>
      </trkpt>
      <trkpt lat="44.59812" lon="2.39158">
        <ele>239.99</ele>
        <time>2019-07-09T10:30:40Z</time>
      </trkpt>
      <trkpt lat="44.59815" lon="2.39166">
        <ele>239.51</ele>
        <time>2019-07-09T10:30:46Z</time>
      </trkpt>
      <trkpt lat="44.59819" lon="2.39178">
        <ele>238.06</ele>
        <time>2019-07-09T10:30:55Z</time>
      </trkpt>
      <trkpt lat="44.5982" lon="2.39189">
        <ele>237.58</ele>
        <time>2019-07-09T10:31:02Z</time>
      </trkpt>
      <trkpt lat="44.5982" lon="2.39206">
        <ele>237.1</ele>
        <time>2019-07-09T10:31:16Z</time>
      </trkpt>
      <trkpt lat="44.59826" lon="2.39223">
        <ele>235.66</ele>
        <time>2019-07-09T10:31:30Z</time>
      </trkpt>
      <trkpt lat="44.59824" lon="2.39228">
        <ele>235.66</ele>
        <time>2019-07-09T10:31:43Z</time>
      </trkpt>
      <trkpt lat="44.59817" lon="2.39227">
        <ele>232.78</ele>
        <time>2019-07-09T10:32:00Z</time>
      </trkpt>
      <trkpt lat="44.59814" lon="2.39234">
        <ele>231.33</ele>
        <time>2019-07-09T10:32:15Z</time>
      </trkpt>
      <trkpt lat="44.59813" lon="2.39233">
        <ele>230.85</ele>
        <time>2019-07-09T10:32:30Z</time>
      </trkpt>
      <trkpt lat="44.59815" lon="2.39235">
        <ele>230.37</ele>
        <time>2019-07-09T10:32:43Z</time>
      </trkpt>
      <trkpt lat="44.5982" lon="2.39245">
        <ele>229.89</ele>
        <time>2019-07-09T10:32:56Z</time>
      </trkpt>
      <trkpt lat="44.59821" lon="2.39247">
        <ele>229.89</ele>
        <time>2019-07-09T10:33:13Z</time>
      </trkpt>
      <trkpt lat="44.59822" lon="2.39248">
        <ele>228.45</ele>
        <time>2019-07-09T10:33:55Z</time>
      </trkpt>
      <trkpt lat="44.59822" lon="2.39248">
        <ele>227.49</ele>
        <time>2019-07-09T10:36:11Z</time>
      </trkpt>
      <trkpt lat="44.59822" lon="2.39248">
        <ele>227.01</ele>
        <time>2019-07-09T10:37:29Z</time>
      </trkpt>
      <trkpt lat="44.59821" lon="2.39248">
        <ele>226.05</ele>
        <time>2019-07-09T10:40:55Z</time>
      </trkpt>
      <trkpt lat="44.59822" lon="2.39248">
        <ele>224.61</ele>
        <time>2019-07-09T10:43:15Z</time>
      </trkpt>
      <trkpt lat="44.59822" lon="2.39248">
        <ele>224.12</ele>
        <time>2019-07-09T10:44:25Z</time>
      </trkpt>
      <trkpt lat="44.59822" lon="2.39248">
        <ele>223.64</ele>
        <time>2019-07-09T10:45:09Z</time>
      </trkpt>
      <trkpt lat="44.59822" lon="2.39249">
        <ele>222.68</ele>
        <time>2019-07-09T10:51:48Z</time>
      </trkpt>
      <trkpt lat="44.59821" lon="2.39251">
        <ele>221.24</ele>
        <time>2019-07-09T10:56:39Z</time>
      </trkpt>
      <trkpt lat="44.59821" lon="2.39251">
        <ele>220.76</ele>
        <time>2019-07-09T10:58:21Z</time>
      </trkpt>
      <trkpt lat="44.59821" lon="2.39251">
        <ele>219.8</ele>
        <time>2019-07-09T10:59:34Z</time>
      </trkpt>
      <trkpt lat="44.59821" lon="2.39253">
        <ele>220.28</ele>
        <time>2019-07-09T11:00:37Z</time>
      </trkpt>
      <trkpt lat="44.59822" lon="2.39256">
        <ele>218.84</ele>
        <time>2019-07-09T11:04:44Z</time>
      </trkpt>
      <trkpt lat="44.59823" lon="2.39256">
        <ele>218.36</ele>
        <time>2019-07-09T11:05:56Z</time>
      </trkpt>
      <trkpt lat="44.59821" lon="2.39259">
        <ele>218.36</ele>
        <time>2019-07-09T11:07:22Z</time>
      </trkpt>
      <trkpt lat="44.59823" lon="2.3926">
        <ele>218.84</ele>
        <time>2019-07-09T11:08:17Z</time>
      </trkpt>
      <trkpt lat="44.59824" lon="2.39262">
        <ele>219.8</ele>
        <time>2019-07-09T11:09:59Z</time>
      </trkpt>
      <trkpt lat="44.59822" lon="2.39262">
        <ele>219.32</ele>
        <time>2019-07-09T11:10:50Z</time>
      </trkpt>
      <trkpt lat="44.59822" lon="2.39262">
        <ele>219.32</ele>
        <time>2019-07-09T11:11:13Z</time>
      </trkpt>
      <trkpt lat="44.59824" lon="2.3926">
        <ele>219.32</ele>
        <time>2019-07-09T11:11:51Z</time>
      </trkpt>
      <trkpt lat="44.59819" lon="2.39243">
        <ele>219.32</ele>
        <time>2019-07-09T11:12:06Z</time>
      </trkpt>
      <trkpt lat="44.59814" lon="2.39238">
        <ele>220.28</ele>
        <time>2019-07-09T11:12:20Z</time>
      </trkpt>
      <trkpt lat="44.59813" lon="2.39234">
        <ele>222.68</ele>
        <time>2019-07-09T11:12:45Z</time>
      </trkpt>
      <trkpt lat="44.59816" lon="2.39229">
        <ele>224.12</ele>
        <time>2019-07-09T11:12:54Z</time>
      </trkpt>
      <trkpt lat="44.59819" lon="2.3923">
        <ele>224.61</ele>
        <time>2019-07-09T11:13:05Z</time>
      </trkpt>
      <trkpt lat="44.5982" lon="2.39243">
        <ele>224.61</ele>
        <time>2019-07-09T11:13:18Z</time>
      </trkpt>
      <trkpt lat="44.59819" lon="2.39259">
        <ele>225.57</ele>
        <time>2019-07-09T11:13:30Z</time>
      </trkpt>
      <trkpt lat="44.59816" lon="2.39275">
        <ele>226.53</ele>
        <time>2019-07-09T11:13:44Z</time>
      </trkpt>
      <trkpt lat="44.59816" lon="2.39277">
        <ele>226.05</ele>
        <time>2019-07-09T11:13:46Z</time>
      </trkpt>
      <trkpt lat="44.59813" lon="2.3929">
        <ele>226.05</ele>
        <time>2019-07-09T11:13:57Z</time>
      </trkpt>
      <trkpt lat="44.59819" lon="2.39297">
        <ele>227.01</ele>
        <time>2019-07-09T11:14:09Z</time>
      </trkpt>
      <trkpt lat="44.59828" lon="2.39298">
        <ele>226.53</ele>
        <time>2019-07-09T11:14:20Z</time>
      </trkpt>
      <trkpt lat="44.59844" lon="2.39294">
        <ele>226.05</ele>
        <time>2019-07-09T11:14:36Z</time>
      </trkpt>
      <trkpt lat="44.59858" lon="2.39292">
        <ele>226.05</ele>
        <time>2019-07-09T11:14:51Z</time>
      </trkpt>
      <trkpt lat="44.59871" lon="2.39289">
        <ele>225.09</ele>
        <time>2019-07-09T11:15:03Z</time>
      </trkpt>
      <trkpt lat="44.59879" lon="2.39286">
        <ele>225.09</ele>
        <time>2019-07-09T11:15:12Z</time>
      </trkpt>
      <trkpt lat="44.59885" lon="2.39284">
        <ele>224.61</ele>
        <time>2019-07-09T11:15:23Z</time>
      </trkpt>
      <trkpt lat="44.59886" lon="2.39285">
        <ele>224.61</ele>
        <time>2019-07-09T11:15:46Z</time>
      </trkpt>
    </trkseg>
  </trk>
</gpx>